Time,TemperatureF,DewpointF,PressureIn,WindDirection,WindDirectionDegrees,WindSpeedMPH,WindSpeedGustMPH,Humidity,HourlyPrecipIn,Conditions,Clouds,dailyrainin,SoftwareType,DateUTC
2013-02-28 00:00:00,31.1,26.8,29.83,NNW,338,0.0,0.0,84,0.00,,OVC018,0.00,VWS V14.01,2013-02-28 06:00:00,
2013-02-28 00:02:00,31.1,26.8,29.83,NNW,338,0.0,0.0,84,0.00,,OVC018,0.00,VWS V14.01,2013-02-28 06:02:00,
2013-02-28 00:03:00,30.9,26.6,29.83,NNW,338,0.0,0.0,84,0.00,,OVC018,0.00,VWS V14.01,2013-02-28 06:03:00,
2013-02-28 00:05:00,31.1,26.8,29.83,North,0,0.0,0.0,84,0.00,,OVC018,0.00,VWS V14.01,2013-02-28 06:05:00,
2013-02-28 00:06:00,30.9,26.6,29.83,NNW,338,0.0,0.0,84,0.00,,OVC018,0.00,VWS V14.01,2013-02-28 06:06:00,
2013-02-28 00:07:00,30.9,26.6,29.83,NNW,338,0.0,0.0,84,0.00,,OVC018,0.00,VWS V14.01,2013-02-28 06:07:00,
2013-02-28 00:11:00,30.7,26.5,29.83,NNW,338,0.0,0.0,84,0.00,,OVC018,0.00,VWS V14.01,2013-02-28 06:11:00,
2013-02-28 00:12:00,30.9,26.6,29.83,North,0,0.0,0.0,84,0.00,,OVC018,0.00,VWS V14.01,2013-02-28 06:12:00,
2013-02-28 00:13:00,30.5,26.2,29.83,North,0,0.0,0.0,84,0.00,,OVC018,0.00,VWS V14.01,2013-02-28 06:13:00,
2013-02-28 00:16:00,30.3,26.1,29.83,NNW,338,0.0,0.0,84,0.00,,OVC018,0.00,VWS V14.01,2013-02-28 06:16:00,
2013-02-28 00:18:00,30.3,26.1,29.84,North,0,0.0,0.0,84,0.00,,OVC018,0.00,VWS V14.01,2013-02-28 06:18:00,
2013-02-28 00:19:00,30.3,26.1,29.83,NNW,338,0.0,0.0,84,0.00,,OVC018,0.00,VWS V14.01,2013-02-28 06:19:00,
2013-02-28 00:21:00,30.2,26.0,29.83,NNW,338,0.0,0.0,84,0.00,,OVC018,0.00,VWS V14.01,2013-02-28 06:21:00,
2013-02-28 00:22:00,30.2,26.0,29.83,North,0,0.0,0.0,84,0.00,,OVC018,0.00,VWS V14.01,2013-02-28 06:22:00,
2013-02-28 00:23:00,30.2,26.0,29.83,NNW,338,0.0,0.0,84,0.00,,OVC018,0.00,VWS V14.01,2013-02-28 06:23:00,
2013-02-28 00:26:00,30.0,25.8,29.84,North,0,0.0,0.0,84,0.00,,OVC018,0.00,VWS V14.01,2013-02-28 06:26:00,
2013-02-28 00:27:00,30.0,25.8,29.83,NNW,338,0.0,0.0,84,0.00,,OVC018,0.00,VWS V14.01,2013-02-28 06:27:00,
2013-02-28 00:28:00,30.0,25.8,29.83,NNW,338,0.0,0.0,84,0.00,,OVC018,0.00,VWS V14.01,2013-02-28 06:28:00,
2013-02-28 00:29:00,29.8,25.6,29.84,NNW,338,0.0,0.0,84,0.00,,OVC018,0.00,VWS V14.01,2013-02-28 06:29:00,
2013-02-28 00:33:00,29.8,25.6,29.84,NNW,338,0.0,0.0,84,0.00,,OVC018,0.00,VWS V14.01,2013-02-28 06:33:00,
2013-02-28 00:34:00,29.8,25.6,29.84,NNW,338,0.0,0.0,84,0.00,,OVC018,0.00,VWS V14.01,2013-02-28 06:34:00,
2013-02-28 00:35:00,29.8,25.6,29.84,NNW,338,0.0,0.0,84,0.00,,OVC018,0.00,VWS V14.01,2013-02-28 06:35:00,
2013-02-28 00:36:00,30.0,25.8,29.83,SSW,202,0.0,0.0,84,0.00,,OVC018,0.00,VWS V14.01,2013-02-28 06:36:00,
2013-02-28 00:39:00,30.0,25.8,29.84,NNW,338,0.0,0.0,84,0.00,,SCT013,0.00,VWS V14.01,2013-02-28 06:39:00,
2013-02-28 00:42:00,29.8,25.6,29.84,NNW,338,0.0,0.0,84,0.00,,SCT013,0.00,VWS V14.01,2013-02-28 06:42:00,
2013-02-28 00:44:00,30.0,25.8,29.84,NNW,338,0.0,0.0,84,0.00,,SCT013,0.00,VWS V14.01,2013-02-28 06:44:00,
2013-02-28 00:45:00,29.8,25.6,29.84,North,0,0.0,0.0,84,0.00,,SCT013,0.00,VWS V14.01,2013-02-28 06:45:00,
2013-02-28 00:47:00,30.0,25.8,29.84,North,0,0.0,0.0,84,0.00,,SCT013,0.00,VWS V14.01,2013-02-28 06:47:00,
2013-02-28 00:48:00,30.0,25.8,29.84,North,0,0.0,0.0,84,0.00,,SCT013,0.00,VWS V14.01,2013-02-28 06:48:00,
2013-02-28 00:50:00,29.8,25.6,29.84,North,0,0.0,0.0,84,0.00,,BKN013,0.00,VWS V14.01,2013-02-28 06:50:00,
2013-02-28 00:54:00,30.2,26.0,29.84,North,0,0.0,0.0,84,0.00,,BKN013,0.00,VWS V14.01,2013-02-28 06:54:00,
2013-02-28 00:55:00,30.0,25.8,29.84,NNW,338,0.0,0.0,84,0.00,,BKN013,0.00,VWS V14.01,2013-02-28 06:55:00,
2013-02-28 00:56:00,30.0,25.8,29.84,NNW,338,0.0,0.0,84,0.00,,BKN013,0.00,VWS V14.01,2013-02-28 06:56:00,
2013-02-28 00:59:00,30.0,25.8,29.84,North,0,0.0,0.0,84,0.00,,BKN013,0.00,VWS V14.01,2013-02-28 06:59:00,
2013-02-28 01:01:00,29.8,25.6,29.84,NNW,338,0.0,0.0,84,0.00,,BKN013,0.00,VWS V14.01,2013-02-28 07:01:00,
2013-02-28 01:04:00,29.8,25.6,29.84,NNW,338,0.0,0.0,84,0.00,,BKN013,0.00,VWS V14.01,2013-02-28 07:04:00,
2013-02-28 01:05:00,29.8,25.6,29.84,North,0,0.0,0.0,84,0.00,,BKN013,0.00,VWS V14.01,2013-02-28 07:05:00,
2013-02-28 01:06:00,29.8,25.6,29.84,North,0,0.0,0.0,84,0.00,,BKN013,0.00,VWS V14.01,2013-02-28 07:06:00,
2013-02-28 01:08:00,29.6,25.4,29.85,NNW,338,0.0,0.0,84,0.00,,BKN013,0.00,VWS V14.01,2013-02-28 07:08:00,
2013-02-28 01:11:00,29.8,25.6,29.84,North,0,0.0,0.0,84,0.00,,BKN013,0.00,VWS V14.01,2013-02-28 07:11:00,
2013-02-28 01:12:00,29.6,25.4,29.85,NNW,338,0.0,0.0,84,0.00,,BKN013,0.00,VWS V14.01,2013-02-28 07:12:00,
2013-02-28 01:13:00,29.6,25.4,29.84,NNW,338,0.0,0.0,84,0.00,,BKN013,0.00,VWS V14.01,2013-02-28 07:13:00,
2013-02-28 01:15:00,29.6,25.4,29.84,SSW,202,0.0,0.0,84,0.00,,BKN013,0.00,VWS V14.01,2013-02-28 07:15:00,
2013-02-28 01:16:00,29.6,25.4,29.84,NNW,338,0.0,0.0,84,0.00,,BKN013,0.00,VWS V14.01,2013-02-28 07:16:00,
2013-02-28 01:18:00,29.6,25.4,29.84,North,0,0.0,0.0,84,0.00,,BKN013,0.00,VWS V14.01,2013-02-28 07:18:00,
2013-02-28 01:22:00,29.6,25.4,29.85,North,0,0.0,0.0,84,0.00,,BKN013,0.00,VWS V14.01,2013-02-28 07:22:00,
2013-02-28 01:23:00,29.6,25.4,29.85,NNW,338,0.0,0.0,84,0.00,,BKN013,0.00,VWS V14.01,2013-02-28 07:23:00,
2013-02-28 01:25:00,29.4,25.2,29.85,NNW,338,0.0,0.0,84,0.00,,BKN013,0.00,VWS V14.01,2013-02-28 07:25:00,
2013-02-28 01:26:00,29.4,25.2,29.85,NNW,338,0.0,0.0,84,0.00,,BKN013,0.00,VWS V14.01,2013-02-28 07:26:00,
2013-02-28 01:28:00,29.6,25.4,29.85,NNW,338,0.0,0.0,84,0.00,,BKN013,0.00,VWS V14.01,2013-02-28 07:28:00,
2013-02-28 01:30:00,29.6,25.4,29.85,NNW,338,0.0,0.0,84,0.00,,BKN013,0.00,VWS V14.01,2013-02-28 07:30:00,
2013-02-28 01:31:00,29.6,25.4,29.85,NNW,338,0.0,0.0,84,0.00,,BKN013,0.00,VWS V14.01,2013-02-28 07:31:00,
2013-02-28 01:33:00,29.6,25.4,29.85,North,0,0.0,0.0,84,0.00,,BKN013,0.00,VWS V14.01,2013-02-28 07:33:00,
2013-02-28 01:34:00,29.6,25.4,29.85,North,0,0.0,0.0,84,0.00,,BKN013,0.00,VWS V14.01,2013-02-28 07:34:00,
2013-02-28 01:36:00,29.8,25.6,29.85,North,0,0.0,0.0,84,0.00,,BKN013,0.00,VWS V14.01,2013-02-28 07:36:00,
2013-02-28 01:37:00,29.8,25.6,29.85,NNW,338,0.0,0.0,84,0.00,,BKN013,0.00,VWS V14.01,2013-02-28 07:37:00,
2013-02-28 01:41:00,29.8,25.6,29.85,NNW,338,0.0,0.0,84,0.00,,BKN033,0.00,VWS V14.01,2013-02-28 07:41:00,
2013-02-28 01:43:00,29.8,25.6,29.85,North,0,0.0,0.0,84,0.00,,BKN033,0.00,VWS V14.01,2013-02-28 07:43:00,
2013-02-28 01:45:00,30.0,25.8,29.85,North,0,0.0,0.0,84,0.00,,BKN033,0.00,VWS V14.01,2013-02-28 07:45:00,
2013-02-28 01:46:00,30.0,25.8,29.85,NNW,338,0.0,0.0,84,0.00,,BKN033,0.00,VWS V14.01,2013-02-28 07:46:00,
2013-02-28 01:49:00,30.0,25.8,29.85,North,0,0.0,0.0,84,0.00,,BKN033,0.00,VWS V14.01,2013-02-28 07:49:00,
2013-02-28 01:51:00,30.2,26.0,29.85,NNW,338,0.0,0.0,84,0.00,,BKN033,0.00,VWS V14.01,2013-02-28 07:51:00,
2013-02-28 01:53:00,30.2,26.2,29.85,SSW,202,0.0,0.0,85,0.00,,BKN033,0.00,VWS V14.01,2013-02-28 07:53:00,
2013-02-28 01:56:00,30.3,26.3,29.85,North,0,0.0,0.0,85,0.00,,BKN033,0.00,VWS V14.01,2013-02-28 07:56:00,
2013-02-28 01:57:00,30.3,26.3,29.85,NNW,338,0.0,0.0,85,0.00,,BKN033,0.00,VWS V14.01,2013-02-28 07:57:00,
2013-02-28 01:58:00,30.3,26.3,29.85,North,0,0.0,0.0,85,0.00,,BKN033,0.00,VWS V14.01,2013-02-28 07:58:00,
2013-02-28 02:01:00,30.5,26.5,29.85,SSW,202,0.0,0.0,85,0.00,,BKN033,0.00,VWS V14.01,2013-02-28 08:01:00,
2013-02-28 02:02:00,30.5,26.5,29.85,North,0,0.0,0.0,85,0.00,,BKN033,0.00,VWS V14.01,2013-02-28 08:02:00,
2013-02-28 02:03:00,30.5,26.5,29.85,NNW,338,0.0,0.0,85,0.00,,BKN033,0.00,VWS V14.01,2013-02-28 08:03:00,
2013-02-28 02:05:00,30.5,26.5,29.85,NNW,338,0.0,0.0,85,0.00,,BKN033,0.00,VWS V14.01,2013-02-28 08:05:00,
2013-02-28 02:06:00,30.5,26.5,29.85,NNW,338,0.0,0.0,85,0.00,,BKN033,0.00,VWS V14.01,2013-02-28 08:06:00,
2013-02-28 02:07:00,30.5,26.5,29.85,North,0,0.0,0.0,85,0.00,,BKN033,0.00,VWS V14.01,2013-02-28 08:07:00,
2013-02-28 02:09:00,30.5,26.5,29.85,NNW,338,0.0,0.0,85,0.00,,BKN033,0.00,VWS V14.01,2013-02-28 08:09:00,
2013-02-28 02:11:00,30.5,26.5,29.85,North,0,0.0,0.0,85,0.00,,BKN033,0.00,VWS V14.01,2013-02-28 08:11:00,
2013-02-28 02:13:00,30.5,26.5,29.85,North,0,0.0,0.0,85,0.00,,BKN033,0.00,VWS V14.01,2013-02-28 08:13:00,
2013-02-28 02:14:00,30.5,26.5,29.85,North,0,0.0,0.0,85,0.00,,BKN033,0.00,VWS V14.01,2013-02-28 08:14:00,
2013-02-28 02:15:00,30.5,26.5,29.85,NNW,338,0.0,0.0,85,0.00,,BKN033,0.00,VWS V14.01,2013-02-28 08:15:00,
2013-02-28 02:18:00,30.5,26.5,29.85,North,0,0.0,0.0,85,0.00,,BKN033,0.00,VWS V14.01,2013-02-28 08:18:00,
2013-02-28 02:21:00,30.5,26.5,29.86,NNW,338,0.0,0.0,85,0.00,,BKN033,0.00,VWS V14.01,2013-02-28 08:21:00,
2013-02-28 02:23:00,30.5,26.5,29.86,NNW,338,0.0,0.0,85,0.00,,BKN033,0.00,VWS V14.01,2013-02-28 08:23:00,
2013-02-28 02:25:00,30.5,26.5,29.86,North,0,0.0,0.0,85,0.00,,BKN033,0.00,VWS V14.01,2013-02-28 08:25:00,
2013-02-28 02:26:00,30.5,26.5,29.86,North,0,0.0,0.0,85,0.00,,BKN033,0.00,VWS V14.01,2013-02-28 08:26:00,
2013-02-28 02:29:00,30.5,26.5,29.85,North,0,0.0,0.0,85,0.00,,BKN033,0.00,VWS V14.01,2013-02-28 08:29:00,
2013-02-28 02:31:00,30.7,26.7,29.85,North,0,0.0,0.0,85,0.00,,BKN033,0.00,VWS V14.01,2013-02-28 08:31:00,
2013-02-28 02:35:00,30.7,26.7,29.86,North,0,0.0,0.0,85,0.00,,BKN033,0.00,VWS V14.01,2013-02-28 08:35:00,
2013-02-28 02:36:00,30.5,26.5,29.86,NNW,338,0.0,0.0,85,0.00,,BKN033,0.00,VWS V14.01,2013-02-28 08:36:00,
2013-02-28 02:39:00,30.7,26.7,29.86,NNW,338,0.0,0.0,85,0.00,,OVC037,0.00,VWS V14.01,2013-02-28 08:39:00,
2013-02-28 02:41:00,30.7,26.7,29.86,NNW,338,0.0,0.0,85,0.00,,OVC037,0.00,VWS V14.01,2013-02-28 08:41:00,
2013-02-28 02:43:00,30.5,26.5,29.85,NNW,338,0.0,0.0,85,0.00,,OVC037,0.00,VWS V14.01,2013-02-28 08:43:00,
2013-02-28 02:44:00,30.5,26.5,29.85,NNW,338,0.0,0.0,85,0.00,,OVC037,0.00,VWS V14.01,2013-02-28 08:44:00,
2013-02-28 02:46:00,30.7,26.7,29.85,North,0,0.0,0.0,85,0.00,,OVC037,0.00,VWS V14.01,2013-02-28 08:46:00,
2013-02-28 02:47:00,30.9,26.9,29.85,NNW,338,0.0,0.0,85,0.00,,OVC037,0.00,VWS V14.01,2013-02-28 08:47:00,
2013-02-28 02:52:00,30.9,26.9,29.86,North,0,0.0,0.0,85,0.00,,OVC033,0.00,VWS V14.01,2013-02-28 08:52:00,
2013-02-28 02:55:00,30.9,26.9,29.86,North,0,0.0,0.0,85,0.00,,OVC033,0.00,VWS V14.01,2013-02-28 08:55:00,
2013-02-28 02:56:00,30.9,26.9,29.86,North,0,0.0,0.0,85,0.00,,OVC033,0.00,VWS V14.01,2013-02-28 08:56:00,
2013-02-28 02:57:00,30.9,26.9,29.86,NNW,338,0.0,0.0,85,0.00,,OVC033,0.00,VWS V14.01,2013-02-28 08:57:00,
2013-02-28 03:01:00,30.7,26.7,29.86,NNW,338,0.0,3.0,85,0.00,,OVC033,0.00,VWS V14.01,2013-02-28 09:01:00,
2013-02-28 03:02:00,30.9,26.9,29.86,NNW,338,0.0,0.0,85,0.00,,OVC033,0.00,VWS V14.01,2013-02-28 09:02:00,
2013-02-28 03:03:00,30.7,26.7,29.86,NNW,338,0.0,0.0,85,0.00,,OVC033,0.00,VWS V14.01,2013-02-28 09:03:00,
2013-02-28 03:06:00,30.9,26.9,29.86,North,0,0.0,0.0,85,0.00,,OVC033,0.00,VWS V14.01,2013-02-28 09:06:00,
2013-02-28 03:07:00,30.7,26.7,29.86,North,0,0.0,0.0,85,0.00,,OVC033,0.00,VWS V14.01,2013-02-28 09:07:00,
2013-02-28 03:08:00,30.9,26.9,29.86,NNW,338,0.4,0.4,85,0.00,,OVC033,0.00,VWS V14.01,2013-02-28 09:08:00,
2013-02-28 03:12:00,30.7,26.5,29.86,NNW,338,10.2,10.2,84,0.00,,OVC033,0.00,VWS V14.01,2013-02-28 09:12:00,
2013-02-28 03:15:00,30.9,26.6,29.86,North,0,0.0,15.2,84,0.00,,OVC033,0.00,VWS V14.01,2013-02-28 09:15:00,
2013-02-28 03:20:00,30.9,26.6,29.86,NNW,338,0.0,8.0,84,0.00,,OVC033,0.00,VWS V14.01,2013-02-28 09:20:00,
2013-02-28 03:21:00,30.9,26.6,29.86,NNW,338,3.4,3.4,84,0.00,,OVC033,0.00,VWS V14.01,2013-02-28 09:21:00,
2013-02-28 03:25:00,30.9,26.6,29.86,NNW,338,4.0,4.0,84,0.00,,OVC033,0.00,VWS V14.01,2013-02-28 09:25:00,
2013-02-28 03:27:00,30.9,26.6,29.87,NNW,338,4.0,4.0,84,0.00,,OVC033,0.00,VWS V14.01,2013-02-28 09:27:00,
2013-02-28 03:28:00,30.9,26.6,29.86,NNW,338,2.6,4.0,84,0.00,,OVC033,0.00,VWS V14.01,2013-02-28 09:28:00,
2013-02-28 03:31:00,30.9,26.6,29.87,NNW,338,0.0,2.2,84,0.00,,OVC033,0.00,VWS V14.01,2013-02-28 09:31:00,
2013-02-28 03:32:00,30.7,26.5,29.87,NNW,338,8.0,8.0,84,0.00,,OVC033,0.00,VWS V14.01,2013-02-28 09:32:00,
2013-02-28 03:34:00,30.9,26.6,29.87,NNW,338,0.0,4.0,84,0.00,,OVC033,0.00,VWS V14.01,2013-02-28 09:34:00,
2013-02-28 03:37:00,30.9,26.6,29.87,NNW,338,0.0,5.8,84,0.00,,OVC033,0.00,VWS V14.01,2013-02-28 09:37:00,
2013-02-28 03:38:00,30.9,26.6,29.87,NNW,338,3.4,3.4,84,0.00,,OVC032,0.00,VWS V14.01,2013-02-28 09:38:00,
2013-02-28 03:42:00,30.9,26.6,29.87,NNW,338,0.0,2.2,84,0.00,,OVC032,0.00,VWS V14.01,2013-02-28 09:42:00,
2013-02-28 03:45:00,30.9,26.6,29.87,NNW,338,9.8,9.8,84,0.00,,OVC032,0.00,VWS V14.01,2013-02-28 09:45:00,
2013-02-28 03:46:00,30.9,26.6,29.87,North,0,0.0,9.8,84,0.00,,OVC032,0.00,VWS V14.01,2013-02-28 09:46:00,
2013-02-28 03:47:00,30.9,26.6,29.87,NNW,338,0.0,0.0,84,0.00,,OVC032,0.00,VWS V14.01,2013-02-28 09:47:00,
2013-02-28 03:51:00,30.7,26.5,29.87,NNW,338,5.2,5.2,84,0.00,,OVC032,0.00,VWS V14.01,2013-02-28 09:51:00,
2013-02-28 03:52:00,30.9,26.6,29.87,NNW,338,5.2,5.2,84,0.00,,OVC032,0.00,VWS V14.01,2013-02-28 09:52:00,
2013-02-28 03:57:00,30.9,26.6,29.88,SSW,202,0.0,0.0,84,0.00,,OVC032,0.00,VWS V14.01,2013-02-28 09:57:00,
2013-02-28 03:59:00,30.9,26.6,29.87,NNW,338,4.0,8.4,84,0.00,,OVC032,0.00,VWS V14.01,2013-02-28 09:59:00,
2013-02-28 04:00:00,30.9,26.6,29.88,NNW,338,9.8,9.8,84,0.00,,OVC032,0.00,VWS V14.01,2013-02-28 10:00:00,
2013-02-28 04:05:00,30.9,26.6,29.88,NNW,338,13.4,13.4,84,0.00,,OVC032,0.00,VWS V14.01,2013-02-28 10:05:00,
2013-02-28 04:06:00,30.9,26.6,29.87,North,0,0.0,0.0,84,0.00,,OVC032,0.00,VWS V14.01,2013-02-28 10:06:00,
2013-02-28 04:08:00,30.9,26.6,29.88,NNW,338,7.6,7.6,84,0.00,,OVC032,0.00,VWS V14.01,2013-02-28 10:08:00,
2013-02-28 04:11:00,30.9,26.6,29.88,NNW,338,8.8,8.8,84,0.00,,OVC032,0.00,VWS V14.01,2013-02-28 10:11:00,
2013-02-28 04:13:00,30.7,26.5,29.88,NNW,338,0.0,0.0,84,0.00,,OVC032,0.00,VWS V14.01,2013-02-28 10:13:00,
2013-02-28 04:18:00,30.9,26.6,29.88,NNW,338,0.0,0.0,84,0.00,,OVC032,0.00,VWS V14.01,2013-02-28 10:18:00,
2013-02-28 04:19:00,30.9,26.6,29.88,NNW,338,7.6,7.6,84,0.00,,OVC032,0.00,VWS V14.01,2013-02-28 10:19:00,
2013-02-28 04:24:00,30.9,26.6,29.88,North,0,4.0,4.0,84,0.00,,OVC032,0.00,VWS V14.01,2013-02-28 10:24:00,
2013-02-28 04:25:00,30.9,26.6,29.88,NNW,338,5.8,5.8,84,0.00,,OVC032,0.00,VWS V14.01,2013-02-28 10:25:00,
2013-02-28 04:29:00,30.9,26.4,29.88,NNW,338,9.8,9.8,83,0.00,,OVC032,0.00,VWS V14.01,2013-02-28 10:29:00,
2013-02-28 04:31:00,30.9,26.4,29.89,North,0,7.0,9.8,83,0.00,,OVC032,0.00,VWS V14.01,2013-02-28 10:31:00,
2013-02-28 04:33:00,30.9,26.4,29.89,NNW,338,6.2,6.2,83,0.00,,OVC032,0.00,VWS V14.01,2013-02-28 10:33:00,
2013-02-28 04:36:00,30.9,26.4,29.89,NNW,338,8.8,8.8,83,0.00,,OVC032,0.00,VWS V14.01,2013-02-28 10:36:00,
2013-02-28 04:38:00,30.7,26.2,29.89,NNW,338,8.4,8.4,83,0.00,,OVC032,0.00,VWS V14.01,2013-02-28 10:38:00,
2013-02-28 04:39:00,30.9,26.4,29.89,NNW,338,7.0,8.4,83,0.00,,OVC023,0.00,VWS V14.01,2013-02-28 10:39:00,
2013-02-28 04:41:00,30.9,26.4,29.89,North,0,6.2,9.2,83,0.00,,OVC023,0.00,VWS V14.01,2013-02-28 10:41:00,
2013-02-28 04:42:00,30.9,26.4,29.89,North,0,6.2,6.2,83,0.00,,OVC023,0.00,VWS V14.01,2013-02-28 10:42:00,
2013-02-28 04:45:00,30.9,26.4,29.89,NNW,338,6.2,6.2,83,0.00,,OVC023,0.00,VWS V14.01,2013-02-28 10:45:00,
2013-02-28 04:46:00,30.9,26.4,29.89,SSW,202,0.0,6.2,83,0.00,,OVC023,0.00,VWS V14.01,2013-02-28 10:46:00,
2013-02-28 04:47:00,30.9,26.4,29.89,NNW,338,8.4,8.4,83,0.00,,OVC023,0.00,VWS V14.01,2013-02-28 10:47:00,
2013-02-28 04:51:00,30.7,26.2,29.90,NNW,338,3.4,10.6,83,0.00,,OVC023,0.00,VWS V14.01,2013-02-28 10:51:00,
2013-02-28 04:52:00,30.7,26.2,29.90,NNW,338,2.2,3.4,83,0.00,,OVC023,0.00,VWS V14.01,2013-02-28 10:52:00,
2013-02-28 04:53:00,30.7,26.2,29.90,NNW,338,0.0,0.0,83,0.00,,OVC023,0.00,VWS V14.01,2013-02-28 10:53:00,
2013-02-28 04:54:00,30.9,26.4,29.90,NNW,338,0.0,0.0,83,0.00,,OVC023,0.00,VWS V14.01,2013-02-28 10:54:00,
2013-02-28 04:57:00,30.7,26.2,29.90,NNW,338,0.0,0.0,83,0.00,,OVC023,0.00,VWS V14.01,2013-02-28 10:57:00,
2013-02-28 04:59:00,30.7,26.2,29.90,NNW,338,0.0,0.0,83,0.00,,OVC023,0.00,VWS V14.01,2013-02-28 10:59:00,
2013-02-28 05:00:00,30.7,26.2,29.90,North,0,5.2,5.2,83,0.00,,OVC023,0.00,VWS V14.01,2013-02-28 11:00:00,
2013-02-28 05:02:00,30.7,26.2,29.90,NNW,338,0.0,0.0,83,0.00,,OVC023,0.00,VWS V14.01,2013-02-28 11:02:00,
2013-02-28 05:03:00,30.5,26.0,29.90,NNW,338,0.0,0.0,83,0.00,,OVC023,0.00,VWS V14.01,2013-02-28 11:03:00,
2013-02-28 05:05:00,30.5,26.0,29.90,NNW,338,0.0,3.4,83,0.00,,OVC023,0.00,VWS V14.01,2013-02-28 11:05:00,
2013-02-28 05:07:00,30.7,26.2,29.90,SSW,202,0.0,0.0,83,0.00,,OVC023,0.00,VWS V14.01,2013-02-28 11:07:00,
2013-02-28 05:09:00,30.5,26.0,29.90,NNW,338,0.0,8.0,83,0.00,,OVC023,0.00,VWS V14.01,2013-02-28 11:09:00,
2013-02-28 05:11:00,30.5,26.0,29.90,NNW,338,0.0,0.0,83,0.00,,OVC023,0.00,VWS V14.01,2013-02-28 11:11:00,
2013-02-28 05:12:00,30.5,26.0,29.90,NNW,338,4.0,4.0,83,0.00,,OVC023,0.00,VWS V14.01,2013-02-28 11:12:00,
2013-02-28 05:16:00,30.5,26.0,29.90,NNW,338,9.2,9.2,83,0.00,,OVC023,0.00,VWS V14.01,2013-02-28 11:16:00,
2013-02-28 05:17:00,30.5,26.0,29.90,North,0,4.8,9.2,83,0.00,,OVC023,0.00,VWS V14.01,2013-02-28 11:17:00,
2013-02-28 05:18:00,30.5,26.0,29.90,NNW,338,10.2,10.2,83,0.00,,OVC023,0.00,VWS V14.01,2013-02-28 11:18:00,
2013-02-28 05:20:00,30.5,26.0,29.90,NNW,338,10.6,10.6,83,0.00,,OVC023,0.00,VWS V14.01,2013-02-28 11:20:00,
2013-02-28 05:21:00,30.5,26.0,29.90,NNW,338,4.0,4.0,83,0.00,,OVC023,0.00,VWS V14.01,2013-02-28 11:21:00,
2013-02-28 05:24:00,30.5,26.0,29.90,NNW,338,1.2,1.2,83,0.00,,OVC023,0.00,VWS V14.01,2013-02-28 11:24:00,
2013-02-28 05:25:00,30.5,26.0,29.90,NNW,338,0.0,0.0,83,0.00,,OVC023,0.00,VWS V14.01,2013-02-28 11:25:00,
2013-02-28 05:26:00,30.5,26.0,29.90,NNW,338,0.0,0.0,83,0.00,,OVC023,0.00,VWS V14.01,2013-02-28 11:26:00,
2013-02-28 05:27:00,30.5,26.0,29.90,NNW,338,1.2,1.2,83,0.00,,OVC023,0.00,VWS V14.01,2013-02-28 11:27:00,
2013-02-28 05:30:00,30.5,26.0,29.90,NNW,338,5.2,5.2,83,0.00,,OVC023,0.00,VWS V14.01,2013-02-28 11:30:00,
2013-02-28 05:32:00,30.5,26.0,29.90,NNW,338,0.0,0.0,83,0.00,,OVC023,0.00,VWS V14.01,2013-02-28 11:32:00,
2013-02-28 05:33:00,30.5,26.0,29.90,NNW,338,8.0,8.0,83,0.00,,OVC023,0.00,VWS V14.01,2013-02-28 11:33:00,
2013-02-28 05:35:00,30.5,26.0,29.90,NNW,338,3.4,3.4,83,0.00,,OVC023,0.00,VWS V14.01,2013-02-28 11:35:00,
2013-02-28 05:36:00,30.5,26.0,29.91,North,0,0.0,3.4,83,0.00,,OVC023,0.00,VWS V14.01,2013-02-28 11:36:00,
2013-02-28 05:37:00,30.5,26.0,29.91,NNW,338,3.0,3.0,83,0.00,,OVC023,0.00,VWS V14.01,2013-02-28 11:37:00,
2013-02-28 05:40:00,30.5,26.0,29.90,NNW,338,6.6,9.8,83,0.00,,OVC023,0.00,VWS V14.01,2013-02-28 11:40:00,
2013-02-28 05:42:00,30.5,26.0,29.91,NNW,338,5.8,7.6,83,0.00,,OVC023,0.00,VWS V14.01,2013-02-28 11:42:00,
2013-02-28 05:43:00,30.5,26.0,29.91,NNW,338,4.8,7.6,83,0.00,,OVC023,0.00,VWS V14.01,2013-02-28 11:43:00,
2013-02-28 05:45:00,30.5,26.0,29.91,NNW,338,7.6,7.6,83,0.00,,OVC023,0.00,VWS V14.01,2013-02-28 11:45:00,
2013-02-28 05:47:00,30.5,26.0,29.91,NNW,338,2.2,2.2,83,0.00,,OVC023,0.00,VWS V14.01,2013-02-28 11:47:00,
2013-02-28 05:48:00,30.3,25.8,29.91,NNW,338,3.4,3.4,83,0.00,,OVC023,0.00,VWS V14.01,2013-02-28 11:48:00,
2013-02-28 05:51:00,30.3,25.8,29.91,North,0,0.0,0.4,83,0.00,,OVC023,0.00,VWS V14.01,2013-02-28 11:51:00,
2013-02-28 05:53:00,30.3,25.8,29.91,NNW,338,0.0,6.2,83,0.00,,OVC023,0.00,VWS V14.01,2013-02-28 11:53:00,
2013-02-28 05:56:00,30.3,25.8,29.91,NNW,338,0.0,0.0,83,0.00,,OVC023,0.00,VWS V14.01,2013-02-28 11:56:00,
2013-02-28 05:58:00,30.5,26.0,29.91,NNW,338,8.4,8.4,83,0.00,,OVC023,0.00,VWS V14.01,2013-02-28 11:58:00,
2013-02-28 05:59:00,30.5,26.0,29.91,NNW,338,0.0,8.4,83,0.00,,OVC023,0.00,VWS V14.01,2013-02-28 11:59:00,
2013-02-28 06:04:00,30.3,25.8,29.91,NNW,338,7.0,7.0,83,0.00,,OVC023,0.00,VWS V14.01,2013-02-28 12:04:00,
2013-02-28 06:05:00,30.5,26.0,29.91,NNW,338,12.0,12.0,83,0.00,,OVC023,0.00,VWS V14.01,2013-02-28 12:05:00,
2013-02-28 06:09:00,30.3,25.8,29.92,North,0,0.0,0.0,83,0.00,,OVC023,0.00,VWS V14.01,2013-02-28 12:09:00,
2013-02-28 06:10:00,30.3,25.8,29.91,NNW,338,8.4,8.4,83,0.00,,OVC023,0.00,VWS V14.01,2013-02-28 12:10:00,
2013-02-28 06:11:00,30.3,25.8,29.91,NNW,338,0.0,8.4,83,0.00,,OVC023,0.00,VWS V14.01,2013-02-28 12:11:00,
2013-02-28 06:15:00,30.5,26.0,29.92,SSW,202,0.0,0.0,83,0.00,,OVC023,0.00,VWS V14.01,2013-02-28 12:15:00,
2013-02-28 06:18:00,30.3,25.8,29.92,NNW,338,8.4,8.4,83,0.00,,OVC023,0.00,VWS V14.01,2013-02-28 12:18:00,
2013-02-28 06:21:00,30.3,25.8,29.92,NNW,338,7.0,7.0,83,0.00,,OVC023,0.00,VWS V14.01,2013-02-28 12:21:00,
2013-02-28 06:24:00,30.3,25.8,29.92,NNW,338,5.2,5.2,83,0.00,,OVC023,0.00,VWS V14.01,2013-02-28 12:24:00,
2013-02-28 06:26:00,30.3,25.8,29.92,North,0,1.2,1.2,83,0.00,,OVC023,0.00,VWS V14.01,2013-02-28 12:26:00,
2013-02-28 06:27:00,30.3,25.8,29.92,NNW,338,0.0,7.0,83,0.00,,OVC023,0.00,VWS V14.01,2013-02-28 12:27:00,
2013-02-28 06:30:00,30.3,25.8,29.92,North,0,8.4,8.4,83,0.00,,OVC023,0.00,VWS V14.01,2013-02-28 12:30:00,
2013-02-28 06:31:00,30.3,25.8,29.92,North,0,0.0,8.4,83,0.00,,OVC023,0.00,VWS V14.01,2013-02-28 12:31:00,
2013-02-28 06:33:00,30.3,25.8,29.93,NNW,338,0.0,1.2,83,0.00,,OVC023,0.00,VWS V14.01,2013-02-28 12:33:00,
2013-02-28 06:37:00,30.3,25.8,29.93,NNW,338,0.0,1.6,83,0.00,,OVC023,0.00,VWS V14.01,2013-02-28 12:37:00,
2013-02-28 06:39:00,30.3,25.8,29.92,NNW,338,0.0,7.6,83,0.00,,OVC023,0.00,VWS V14.01,2013-02-28 12:39:00,
2013-02-28 06:42:00,30.3,25.8,29.93,NNW,338,5.2,5.2,83,0.00,,OVC023,0.00,VWS V14.01,2013-02-28 12:42:00,
2013-02-28 06:45:00,30.3,25.8,29.93,NNW,338,4.8,8.8,83,0.00,,OVC023,0.00,VWS V14.01,2013-02-28 12:45:00,
2013-02-28 06:46:00,30.3,25.8,29.93,NNW,338,11.6,11.6,83,0.00,,OVC023,0.00,VWS V14.01,2013-02-28 12:46:00,
2013-02-28 06:51:00,30.3,25.8,29.93,NNW,338,0.0,0.0,83,0.00,,,0.00,VWS V14.01,2013-02-28 12:51:00,
2013-02-28 06:53:00,30.3,25.8,29.93,NNW,338,0.0,3.4,83,0.00,,,0.00,VWS V14.01,2013-02-28 12:53:00,
2013-02-28 06:56:00,30.3,25.8,29.93,NNW,338,2.2,2.2,83,0.00,,,0.00,VWS V14.01,2013-02-28 12:56:00,
2013-02-28 06:57:00,30.3,25.8,29.93,NNW,338,3.4,3.4,83,0.00,,,0.00,VWS V14.01,2013-02-28 12:57:00,
2013-02-28 06:58:00,30.3,25.8,29.93,NNW,338,3.4,3.4,83,0.00,,,0.00,VWS V14.01,2013-02-28 12:58:00,
2013-02-28 07:01:00,30.3,25.8,29.93,NNW,338,7.0,7.0,83,0.00,,,0.00,VWS V14.01,2013-02-28 13:01:00,
2013-02-28 07:02:00,30.3,25.8,29.93,NNW,338,6.2,7.0,83,0.00,,,0.00,VWS V14.01,2013-02-28 13:02:00,
2013-02-28 07:03:00,30.3,25.8,29.93,NNW,338,4.8,7.0,83,0.00,,,0.00,VWS V14.01,2013-02-28 13:03:00,
2013-02-28 07:06:00,30.3,25.8,29.93,NNW,338,12.0,12.0,83,0.00,,,0.00,VWS V14.01,2013-02-28 13:06:00,
2013-02-28 07:07:00,30.3,25.8,29.93,NNW,338,7.6,12.0,83,0.00,,,0.00,VWS V14.01,2013-02-28 13:07:00,
2013-02-28 07:09:00,30.3,25.8,29.93,NNW,338,10.2,11.6,83,0.00,,,0.00,VWS V14.01,2013-02-28 13:09:00,
2013-02-28 07:12:00,30.3,25.8,29.94,NNW,338,3.0,11.0,83,0.00,,,0.00,VWS V14.01,2013-02-28 13:12:00,
2013-02-28 07:14:00,30.3,25.8,29.94,NNW,338,0.0,5.2,83,0.00,,,0.00,VWS V14.01,2013-02-28 13:14:00,
2013-02-28 07:15:00,30.3,25.8,29.94,NNW,338,0.0,5.2,83,0.00,,,0.00,VWS V14.01,2013-02-28 13:15:00,
2013-02-28 07:17:00,30.3,25.8,29.94,NNW,338,0.0,0.0,83,0.00,,,0.00,VWS V14.01,2013-02-28 13:17:00,
2013-02-28 07:20:00,30.3,25.8,29.94,NNW,338,0.0,0.0,83,0.00,,,0.00,VWS V14.01,2013-02-28 13:20:00,
2013-02-28 07:21:00,30.3,25.8,29.94,NNW,338,5.2,5.2,83,0.00,,,0.00,VWS V14.01,2013-02-28 13:21:00,
2013-02-28 07:26:00,30.3,25.8,29.94,North,0,0.0,7.0,83,0.00,,,0.00,VWS V14.01,2013-02-28 13:26:00,
2013-02-28 07:27:00,30.3,25.8,29.94,NNW,338,4.0,7.0,83,0.00,,,0.00,VWS V14.01,2013-02-28 13:27:00,
2013-02-28 07:28:00,30.3,25.8,29.94,NNW,338,4.0,4.0,83,0.00,,,0.00,VWS V14.01,2013-02-28 13:28:00,
2013-02-28 07:32:00,30.5,26.0,29.95,NNW,338,2.2,2.6,83,0.00,,,0.00,VWS V14.01,2013-02-28 13:32:00,
2013-02-28 07:33:00,30.7,26.2,29.95,NNW,338,6.2,6.2,83,0.00,,,0.00,VWS V14.01,2013-02-28 13:33:00,
2013-02-28 07:35:00,30.7,26.2,29.95,NNW,338,7.6,7.6,83,0.00,,,0.00,VWS V14.01,2013-02-28 13:35:00,
2013-02-28 07:37:00,30.7,26.2,29.95,NNE,22,7.0,7.0,83,0.00,,,0.00,VWS V14.01,2013-02-28 13:37:00,
2013-02-28 07:38:00,30.7,26.2,29.95,NNW,338,8.8,8.8,83,0.00,,,0.00,VWS V14.01,2013-02-28 13:38:00,
2013-02-28 07:42:00,30.7,26.2,29.96,NNW,338,8.8,10.2,83,0.00,,,0.00,VWS V14.01,2013-02-28 13:42:00,
2013-02-28 07:43:00,30.7,26.2,29.96,NNW,338,13.4,13.4,83,0.00,,,0.00,VWS V14.01,2013-02-28 13:43:00,
2013-02-28 07:44:00,30.7,26.2,29.95,NNW,338,5.8,13.4,83,0.00,,,0.00,VWS V14.01,2013-02-28 13:44:00,
2013-02-28 07:45:00,30.9,26.4,29.95,NNW,338,7.0,13.4,83,0.00,,,0.00,VWS V14.01,2013-02-28 13:45:00,
2013-02-28 07:48:00,30.7,26.2,29.96,NNW,338,4.0,4.0,83,0.00,,,0.00,VWS V14.01,2013-02-28 13:48:00,
2013-02-28 07:50:00,30.9,26.4,29.96,NNW,338,0.0,9.8,83,0.00,,,0.00,VWS V14.01,2013-02-28 13:50:00,
2013-02-28 07:51:00,30.9,26.4,29.96,NNW,338,0.0,0.0,83,0.00,,,0.00,VWS V14.01,2013-02-28 13:51:00,
2013-02-28 07:55:00,30.9,26.4,29.96,NNW,338,4.8,4.8,83,0.00,,,0.00,VWS V14.01,2013-02-28 13:55:00,
2013-02-28 07:57:00,30.9,26.4,29.96,NNW,338,0.0,4.8,83,0.00,,,0.00,VWS V14.01,2013-02-28 13:57:00,
2013-02-28 07:59:00,30.9,26.4,29.96,NNW,338,0.0,0.0,83,0.00,,,0.00,VWS V14.01,2013-02-28 13:59:00,
2013-02-28 08:03:00,30.9,26.4,29.96,North,0,0.0,9.2,83,0.00,,,0.00,VWS V14.01,2013-02-28 14:03:00,
2013-02-28 08:04:00,30.9,26.4,29.96,NNW,338,8.0,8.0,83,0.00,,,0.00,VWS V14.01,2013-02-28 14:04:00,
2013-02-28 08:06:00,30.9,26.4,29.96,NNW,338,7.6,7.6,83,0.00,,,0.00,VWS V14.01,2013-02-28 14:06:00,
2013-02-28 08:08:00,30.9,26.4,29.96,NNW,338,6.2,6.2,83,0.00,,,0.00,VWS V14.01,2013-02-28 14:08:00,
2013-02-28 08:13:00,30.9,26.4,29.96,SSW,202,2.6,4.4,83,0.00,,,0.00,VWS V14.01,2013-02-28 14:13:00,
2013-02-28 08:14:00,30.9,26.4,29.96,North,0,7.0,7.0,83,0.00,,,0.00,VWS V14.01,2013-02-28 14:14:00,
2013-02-28 08:17:00,31.1,26.5,29.96,NNW,338,6.6,6.6,83,0.00,,,0.00,VWS V14.01,2013-02-28 14:17:00,
2013-02-28 08:19:00,31.1,26.5,29.96,NNW,338,12.4,12.4,83,0.00,,,0.00,VWS V14.01,2013-02-28 14:19:00,
2013-02-28 08:22:00,31.1,26.5,29.96,NNW,338,2.6,2.6,83,0.00,,,0.00,VWS V14.01,2013-02-28 14:22:00,
2013-02-28 08:24:00,31.1,26.5,29.96,NNW,338,0.0,0.0,83,0.00,,,0.00,VWS V14.01,2013-02-28 14:24:00,
2013-02-28 08:26:00,31.2,26.6,29.97,NNW,338,0.0,0.0,83,0.00,,,0.00,VWS V14.01,2013-02-28 14:26:00,
2013-02-28 08:27:00,31.4,26.8,29.97,NNW,338,5.8,5.8,83,0.00,,,0.00,VWS V14.01,2013-02-28 14:27:00,
2013-02-28 08:31:00,31.4,26.8,29.97,NNW,338,0.0,2.6,83,0.00,,,0.00,VWS V14.01,2013-02-28 14:31:00,
2013-02-28 08:33:00,31.4,26.8,29.97,NNW,338,9.8,9.8,83,0.00,,,0.00,VWS V14.01,2013-02-28 14:33:00,
2013-02-28 08:34:00,31.4,26.8,29.97,NNW,338,9.8,9.8,83,0.00,,,0.00,VWS V14.01,2013-02-28 14:34:00,
2013-02-28 08:37:00,31.6,27.0,29.97,NNW,338,4.8,10.2,83,0.00,,,0.00,VWS V14.01,2013-02-28 14:37:00,
2013-02-28 08:39:00,31.6,27.0,29.97,NNW,338,10.2,10.2,83,0.00,,OVC031,0.00,VWS V14.01,2013-02-28 14:39:00,
2013-02-28 08:41:00,32.0,27.4,29.97,NNW,338,10.2,10.2,83,0.00,,OVC031,0.00,VWS V14.01,2013-02-28 14:41:00,
2013-02-28 08:44:00,32.0,27.1,29.97,NNW,338,0.0,8.4,82,0.00,,OVC031,0.00,VWS V14.01,2013-02-28 14:44:00,
2013-02-28 08:46:00,32.1,27.2,29.97,NNW,338,28.0,28.0,82,0.00,,OVC031,0.00,VWS V14.01,2013-02-28 14:46:00,
2013-02-28 08:48:00,32.1,27.2,29.97,NNW,338,28.0,28.0,82,0.00,,OVC031,0.00,VWS V14.01,2013-02-28 14:48:00,
2013-02-28 08:51:00,32.1,27.2,29.97,North,0,3.0,8.0,82,0.00,,OVC045,0.00,VWS V14.01,2013-02-28 14:51:00,
2013-02-28 08:53:00,32.3,27.4,29.97,NNW,338,0.0,28.0,82,0.00,,OVC045,0.00,VWS V14.01,2013-02-28 14:53:00,
2013-02-28 08:55:00,32.3,27.4,29.97,NNW,338,3.0,3.0,82,0.00,,OVC045,0.00,VWS V14.01,2013-02-28 14:55:00,
2013-02-28 08:57:00,32.3,27.1,29.97,NNW,338,28.0,28.0,81,0.00,,OVC045,0.00,VWS V14.01,2013-02-28 14:57:00,
2013-02-28 08:59:00,32.3,27.1,29.98,NNW,338,28.0,28.0,81,0.00,,OVC045,0.00,VWS V14.01,2013-02-28 14:59:00,
2013-02-28 09:03:00,32.3,27.1,29.98,NNW,338,28.0,28.0,81,0.00,,OVC045,0.00,VWS V14.01,2013-02-28 15:03:00,
2013-02-28 09:07:00,32.5,27.3,29.98,NNW,338,28.0,28.0,81,0.00,,OVC045,0.00,VWS V14.01,2013-02-28 15:07:00,
2013-02-28 09:09:00,32.7,27.5,29.97,NNW,338,6.2,28.0,81,0.00,,OVC045,0.00,VWS V14.01,2013-02-28 15:09:00,
2013-02-28 09:13:00,32.7,27.2,29.98,NNW,338,6.2,6.2,80,0.00,,OVC045,0.00,VWS V14.01,2013-02-28 15:13:00,
2013-02-28 09:14:00,32.7,27.2,29.98,NNW,338,0.8,0.8,80,0.00,,OVC045,0.00,VWS V14.01,2013-02-28 15:14:00,
2013-02-28 09:17:00,32.9,27.4,29.98,NNW,338,9.8,9.8,80,0.00,,OVC045,0.00,VWS V14.01,2013-02-28 15:17:00,
2013-02-28 09:19:00,32.7,26.9,29.98,NNW,338,7.0,10.6,79,0.00,,OVC045,0.00,VWS V14.01,2013-02-28 15:19:00,
2013-02-28 09:21:00,32.7,26.9,29.98,NW,315,17.4,17.4,79,0.00,,OVC045,0.00,VWS V14.01,2013-02-28 15:21:00,
2013-02-28 09:26:00,32.9,26.8,29.98,NNW,338,0.0,0.0,78,0.00,,OVC045,0.00,VWS V14.01,2013-02-28 15:26:00,
2013-02-28 09:27:00,32.9,26.8,29.99,NNW,338,0.0,5.8,78,0.00,,OVC045,0.00,VWS V14.01,2013-02-28 15:27:00,
2013-02-28 09:32:00,33.0,26.9,29.99,NNW,338,8.4,12.0,78,0.00,,OVC045,0.00,VWS V14.01,2013-02-28 15:32:00,
2013-02-28 09:33:00,33.0,26.9,29.99,North,0,5.2,5.2,78,0.00,,OVC045,0.00,VWS V14.01,2013-02-28 15:33:00,
2013-02-28 09:34:00,33.0,26.6,29.99,NNW,338,8.8,8.8,77,0.00,,OVC045,0.00,VWS V14.01,2013-02-28 15:34:00,
2013-02-28 09:35:00,32.9,26.5,29.99,North,0,3.0,3.0,77,0.00,,OVC045,0.00,VWS V14.01,2013-02-28 15:35:00,
2013-02-28 09:38:00,33.0,26.6,29.99,North,0,7.0,10.6,77,0.00,,OVC045,0.00,VWS V14.01,2013-02-28 15:38:00,
2013-02-28 09:40:00,33.2,26.8,29.99,NNW,338,8.0,8.0,77,0.00,,OVC047,0.00,VWS V14.01,2013-02-28 15:40:00,
2013-02-28 09:41:00,33.2,26.5,29.99,NNW,338,5.2,8.0,76,0.00,,OVC047,0.00,VWS V14.01,2013-02-28 15:41:00,
2013-02-28 09:43:00,33.4,26.7,29.99,NNW,338,8.4,8.4,76,0.00,,OVC047,0.00,VWS V14.01,2013-02-28 15:43:00,
2013-02-28 09:45:00,33.4,26.7,29.99,NNW,338,9.8,9.8,76,0.00,,OVC047,0.00,VWS V14.01,2013-02-28 15:45:00,
2013-02-28 09:48:00,33.4,26.3,29.98,NNW,338,8.4,10.2,75,0.00,,OVC047,0.00,VWS V14.01,2013-02-28 15:48:00,
2013-02-28 09:50:00,33.4,26.3,29.99,WNW,292,4.0,4.4,75,0.00,,OVC047,0.00,VWS V14.01,2013-02-28 15:50:00,
2013-02-28 09:52:00,33.6,26.5,29.99,NNW,338,7.0,7.0,75,0.00,,OVC047,0.00,VWS V14.01,2013-02-28 15:52:00,
2013-02-28 09:54:00,33.8,26.7,29.99,NNW,338,8.8,8.8,75,0.00,,OVC047,0.00,VWS V14.01,2013-02-28 15:54:00,
2013-02-28 09:55:00,33.6,26.5,29.99,North,0,9.8,9.8,75,0.00,,OVC047,0.00,VWS V14.01,2013-02-28 15:55:00,
2013-02-28 09:57:00,33.6,26.2,29.99,NNW,338,13.4,13.4,74,0.00,,OVC047,0.00,VWS V14.01,2013-02-28 15:57:00,
2013-02-28 09:58:00,33.4,26.0,29.99,NNW,338,10.2,13.4,74,0.00,,OVC047,0.00,VWS V14.01,2013-02-28 15:58:00,
2013-02-28 09:59:00,33.6,26.2,29.99,NNW,338,5.2,5.2,74,0.00,,OVC047,0.00,VWS V14.01,2013-02-28 15:59:00,
2013-02-28 10:03:00,33.8,26.1,29.99,North,0,8.4,8.4,73,0.00,,OVC047,0.00,VWS V14.01,2013-02-28 16:03:00,
2013-02-28 10:04:00,33.6,25.9,29.99,NNW,338,15.6,15.6,73,0.00,,OVC047,0.00,VWS V14.01,2013-02-28 16:04:00,
2013-02-28 10:08:00,33.4,25.4,29.99,NNW,338,16.0,16.0,72,0.02,,OVC047,0.02,VWS V14.01,2013-02-28 16:08:00,
2013-02-28 10:10:00,33.4,25.4,29.99,NNW,338,6.6,6.6,72,0.02,,OVC047,0.02,VWS V14.01,2013-02-28 16:10:00,
2013-02-28 10:11:00,33.8,25.7,29.99,North,0,2.6,6.6,72,0.02,,OVC047,0.02,VWS V14.01,2013-02-28 16:11:00,
2013-02-28 10:13:00,33.8,25.7,29.99,West,270,18.6,18.6,72,0.02,,OVC047,0.02,VWS V14.01,2013-02-28 16:13:00,
2013-02-28 10:16:00,33.9,25.8,30.00,NNW,338,11.0,13.4,72,0.02,,OVC047,0.02,VWS V14.01,2013-02-28 16:16:00,
2013-02-28 10:18:00,33.9,25.5,29.99,NNW,338,6.6,8.0,71,0.02,,OVC047,0.02,VWS V14.01,2013-02-28 16:18:00,
2013-02-28 10:21:00,34.1,25.7,30.00,NNW,338,7.6,7.6,71,0.02,,OVC047,0.02,VWS V14.01,2013-02-28 16:21:00,
2013-02-28 10:24:00,34.1,25.7,30.00,North,0,12.4,12.4,71,0.02,,OVC047,0.02,VWS V14.01,2013-02-28 16:24:00,
2013-02-28 10:25:00,34.3,25.9,29.99,NNW,338,5.2,12.4,71,0.02,,OVC047,0.02,VWS V14.01,2013-02-28 16:25:00,
2013-02-28 10:27:00,34.1,25.7,29.99,NNW,338,8.4,8.4,71,0.02,,OVC047,0.02,VWS V14.01,2013-02-28 16:27:00,
2013-02-28 10:30:00,34.1,25.4,30.00,North,0,8.8,8.8,70,0.02,,OVC047,0.02,VWS V14.01,2013-02-28 16:30:00,
2013-02-28 10:31:00,34.1,25.4,30.00,NNW,338,16.0,16.0,70,0.02,,OVC047,0.02,VWS V14.01,2013-02-28 16:31:00,
2013-02-28 10:32:00,34.1,25.4,30.00,NNW,338,7.6,16.0,70,0.02,,OVC047,0.02,VWS V14.01,2013-02-28 16:32:00,
2013-02-28 10:36:00,34.3,25.2,29.99,NNW,338,3.0,7.6,69,0.02,,OVC047,0.02,VWS V14.01,2013-02-28 16:36:00,
2013-02-28 10:41:00,34.1,25.0,30.00,NNW,338,5.8,20.0,69,0.02,,OVC049,0.02,VWS V14.01,2013-02-28 16:41:00,
2013-02-28 10:42:00,34.1,25.0,30.00,NNW,338,5.8,5.8,69,0.02,,OVC049,0.02,VWS V14.01,2013-02-28 16:42:00,
2013-02-28 10:43:00,34.1,24.7,30.00,NNW,338,11.6,11.6,68,0.02,,OVC049,0.02,VWS V14.01,2013-02-28 16:43:00,
2013-02-28 10:45:00,34.1,24.7,30.00,NNW,338,10.6,10.6,68,0.02,,OVC049,0.02,VWS V14.01,2013-02-28 16:45:00,
2013-02-28 10:47:00,34.1,24.7,30.00,NNW,338,14.2,14.2,68,0.02,,OVC049,0.02,VWS V14.01,2013-02-28 16:47:00,
2013-02-28 10:48:00,34.1,24.7,30.00,NNW,338,14.2,14.2,68,0.02,,OVC049,0.02,VWS V14.01,2013-02-28 16:48:00,
2013-02-28 10:50:00,34.1,24.7,30.00,NNE,22,7.0,7.0,68,0.02,,OVC049,0.02,VWS V14.01,2013-02-28 16:50:00,
2013-02-28 10:53:00,34.7,25.2,30.00,NNE,22,5.2,8.0,68,0.02,,OVC049,0.02,VWS V14.01,2013-02-28 16:53:00,
2013-02-28 10:57:00,35.0,25.5,30.00,North,0,4.8,11.0,68,0.02,,OVC049,0.02,VWS V14.01,2013-02-28 16:57:00,
2013-02-28 10:59:00,35.0,25.5,30.00,NNW,338,11.0,18.2,68,0.02,,OVC049,0.02,VWS V14.01,2013-02-28 16:59:00,
2013-02-28 11:02:00,34.8,25.0,30.00,NNW,338,11.6,11.6,67,0.02,,OVC049,0.02,VWS V14.01,2013-02-28 17:02:00,
2013-02-28 11:03:00,34.7,24.9,30.00,NNW,338,8.4,11.6,67,0.02,,OVC049,0.02,VWS V14.01,2013-02-28 17:03:00,
2013-02-28 11:05:00,34.7,24.9,30.01,NNW,338,9.8,12.8,67,0.02,,OVC049,0.02,VWS V14.01,2013-02-28 17:05:00,
2013-02-28 11:07:00,34.7,24.9,30.00,NNW,338,9.2,9.8,67,0.02,,OVC049,0.02,VWS V14.01,2013-02-28 17:07:00,
2013-02-28 11:08:00,34.7,24.9,30.00,NNW,338,9.2,9.2,67,0.00,,OVC049,0.02,VWS V14.01,2013-02-28 17:08:00,
2013-02-28 11:13:00,34.7,24.9,30.01,NNW,338,4.8,8.4,67,0.00,,OVC049,0.02,VWS V14.01,2013-02-28 17:13:00,
2013-02-28 11:15:00,34.7,24.9,30.01,North,0,10.2,13.8,67,0.00,,OVC049,0.02,VWS V14.01,2013-02-28 17:15:00,
2013-02-28 11:19:00,34.5,24.3,30.01,North,0,5.8,8.0,66,0.00,,OVC049,0.02,VWS V14.01,2013-02-28 17:19:00,
2013-02-28 11:21:00,34.1,24.3,30.01,NNW,338,16.0,16.0,67,0.00,,OVC049,0.02,VWS V14.01,2013-02-28 17:21:00,
2013-02-28 11:24:00,34.3,24.5,30.01,NNW,338,16.0,16.0,67,0.00,,OVC049,0.02,VWS V14.01,2013-02-28 17:24:00,
2013-02-28 11:29:00,34.1,24.3,30.01,NNW,338,7.6,7.6,67,0.00,,OVC049,0.02,VWS V14.01,2013-02-28 17:29:00,
2013-02-28 11:31:00,34.1,24.3,30.01,NNW,338,13.8,13.8,67,0.00,,OVC049,0.02,VWS V14.01,2013-02-28 17:31:00,
2013-02-28 11:36:00,34.1,24.3,30.01,NNW,338,10.2,10.2,67,0.00,,OVC049,0.02,VWS V14.01,2013-02-28 17:36:00,
2013-02-28 11:38:00,33.9,24.1,30.01,NNW,338,4.0,5.8,67,0.00,,OVC049,0.02,VWS V14.01,2013-02-28 17:38:00,
2013-02-28 11:39:00,34.1,24.3,30.01,North,0,19.2,19.2,67,0.00,,OVC022,0.02,VWS V14.01,2013-02-28 17:39:00,
2013-02-28 11:41:00,33.9,24.1,30.01,NNW,338,6.2,6.2,67,0.00,,OVC022,0.02,VWS V14.01,2013-02-28 17:41:00,
2013-02-28 11:43:00,33.9,24.1,30.01,NNW,338,10.6,10.6,67,0.00,,OVC022,0.02,VWS V14.01,2013-02-28 17:43:00,
2013-02-28 11:44:00,33.9,24.1,30.01,NNW,338,11.6,11.6,67,0.00,,OVC022,0.02,VWS V14.01,2013-02-28 17:44:00,
2013-02-28 11:45:00,33.9,24.1,30.01,NNW,338,8.0,11.6,67,0.00,,OVC022,0.02,VWS V14.01,2013-02-28 17:45:00,
2013-02-28 11:50:00,33.9,24.1,30.01,NNW,338,0.0,0.0,67,0.00,,OVC022,0.02,VWS V14.01,2013-02-28 17:50:00,
2013-02-28 11:51:00,33.9,24.1,30.01,NNW,338,0.0,0.0,67,0.00,,OVC022,0.02,VWS V14.01,2013-02-28 17:51:00,
2013-02-28 11:52:00,33.9,24.1,30.01,NNW,338,0.0,0.0,67,0.00,,OVC022,0.02,VWS V14.01,2013-02-28 17:52:00,
2013-02-28 11:54:00,33.9,24.5,30.01,WNW,292,0.0,2.6,68,0.00,,OVC022,0.02,VWS V14.01,2013-02-28 17:54:00,
2013-02-28 11:57:00,33.9,24.5,30.01,NNW,338,0.0,0.0,68,0.00,,OVC022,0.02,VWS V14.01,2013-02-28 17:57:00,
2013-02-28 12:01:00,33.9,24.1,30.01,NNW,338,4.4,11.6,67,0.00,,OVC022,0.02,VWS V14.01,2013-02-28 18:01:00,
2013-02-28 12:03:00,33.9,24.1,30.01,North,0,0.0,4.4,67,0.00,,OVC022,0.02,VWS V14.01,2013-02-28 18:03:00,
2013-02-28 12:06:00,34.1,24.3,30.01,NNW,338,4.8,6.6,67,0.00,,OVC022,0.02,VWS V14.01,2013-02-28 18:06:00,
2013-02-28 12:08:00,33.9,24.1,30.01,NNW,338,4.8,4.8,67,0.00,,OVC022,0.02,VWS V14.01,2013-02-28 18:08:00,
2013-02-28 12:10:00,33.9,24.1,30.01,NNW,338,0.0,5.8,67,0.00,,OVC022,0.02,VWS V14.01,2013-02-28 18:10:00,
2013-02-28 12:11:00,33.9,24.1,30.01,NNW,338,4.0,5.8,67,0.00,,OVC022,0.02,VWS V14.01,2013-02-28 18:11:00,
2013-02-28 12:15:00,34.1,24.3,30.01,NNW,338,5.2,11.0,67,0.00,,OVC022,0.02,VWS V14.01,2013-02-28 18:15:00,
2013-02-28 12:18:00,34.1,24.3,30.01,North,0,5.2,6.6,67,0.00,,OVC022,0.02,VWS V14.01,2013-02-28 18:18:00,
2013-02-28 12:21:00,33.9,24.1,30.01,North,0,5.2,5.2,67,0.00,,OVC022,0.02,VWS V14.01,2013-02-28 18:21:00,
2013-02-28 12:25:00,33.9,24.1,30.02,NNW,338,2.2,2.2,67,0.00,,OVC022,0.02,VWS V14.01,2013-02-28 18:25:00,
2013-02-28 12:26:00,33.9,24.1,30.02,NNW,338,4.8,4.8,67,0.00,,OVC022,0.02,VWS V14.01,2013-02-28 18:26:00,
2013-02-28 12:27:00,33.9,24.1,30.02,WNW,292,0.0,10.6,67,0.00,,OVC022,0.02,VWS V14.01,2013-02-28 18:27:00,
2013-02-28 12:30:00,33.9,23.8,30.01,NNW,338,5.2,5.2,66,0.00,,OVC022,0.02,VWS V14.01,2013-02-28 18:30:00,
2013-02-28 12:33:00,34.1,24.0,30.01,NNW,338,10.2,10.2,66,0.00,,OVC022,0.02,VWS V14.01,2013-02-28 18:33:00,
2013-02-28 12:39:00,33.9,23.8,30.01,NNW,338,8.0,8.0,66,0.00,,OVC020,0.02,VWS V14.01,2013-02-28 18:39:00,
2013-02-28 12:40:00,33.9,23.8,30.02,NNW,338,4.4,4.4,66,0.00,,OVC020,0.02,VWS V14.01,2013-02-28 18:40:00,
2013-02-28 12:42:00,33.9,23.8,30.02,NNE,22,9.2,9.2,66,0.00,,OVC020,0.02,VWS V14.01,2013-02-28 18:42:00,
2013-02-28 12:44:00,34.1,24.0,30.02,NNW,338,5.8,5.8,66,0.00,,OVC020,0.02,VWS V14.01,2013-02-28 18:44:00,
2013-02-28 12:47:00,33.9,23.8,30.02,NNW,338,8.4,8.4,66,0.00,,OVC020,0.02,VWS V14.01,2013-02-28 18:47:00,
2013-02-28 12:48:00,33.9,23.8,30.02,NNW,338,0.0,0.0,66,0.00,,OVC020,0.02,VWS V14.01,2013-02-28 18:48:00,
2013-02-28 12:49:00,33.9,23.8,30.02,NNW,338,8.0,8.0,66,0.00,,OVC020,0.02,VWS V14.01,2013-02-28 18:49:00,
2013-02-28 12:53:00,34.1,24.0,30.01,North,0,7.6,7.6,66,0.00,,OVC020,0.02,VWS V14.01,2013-02-28 18:53:00,
2013-02-28 12:55:00,34.1,24.0,30.02,NNW,338,7.6,7.6,66,0.02,,OVC020,0.04,VWS V14.01,2013-02-28 18:55:00,
2013-02-28 12:59:00,33.9,23.8,30.01,NNW,338,4.0,8.8,66,0.02,,OVC020,0.04,VWS V14.01,2013-02-28 18:59:00,
2013-02-28 13:01:00,33.9,23.8,30.01,North,0,0.0,1.2,66,0.02,,OVC020,0.04,VWS V14.01,2013-02-28 19:01:00,
2013-02-28 13:02:00,33.9,23.8,30.01,NNW,338,5.8,5.8,66,0.02,,OVC020,0.04,VWS V14.01,2013-02-28 19:02:00,
2013-02-28 13:03:00,33.9,23.8,30.01,NNW,338,3.0,5.8,66,0.02,,OVC020,0.04,VWS V14.01,2013-02-28 19:03:00,
2013-02-28 13:07:00,33.9,23.8,30.01,North,0,0.0,3.0,66,0.02,,OVC020,0.04,VWS V14.01,2013-02-28 19:07:00,
2013-02-28 13:09:00,33.9,24.1,30.01,NNW,338,0.0,0.0,67,0.02,,OVC020,0.04,VWS V14.01,2013-02-28 19:09:00,
2013-02-28 13:11:00,33.9,24.1,30.01,NNW,338,0.0,0.0,67,0.02,,OVC020,0.04,VWS V14.01,2013-02-28 19:11:00,
2013-02-28 13:13:00,33.9,24.1,30.01,NNW,338,0.0,0.0,67,0.02,,OVC020,0.04,VWS V14.01,2013-02-28 19:13:00,
2013-02-28 13:14:00,33.9,24.1,30.01,NNW,338,0.0,0.0,67,0.02,,OVC020,0.04,VWS V14.01,2013-02-28 19:14:00,
2013-02-28 13:15:00,33.9,24.1,30.01,NNW,338,0.0,0.0,67,0.02,,OVC020,0.04,VWS V14.01,2013-02-28 19:15:00,
2013-02-28 13:17:00,33.9,24.5,30.01,NNW,338,0.0,0.0,68,0.02,,OVC020,0.04,VWS V14.01,2013-02-28 19:17:00,
2013-02-28 13:19:00,33.9,24.5,30.01,NNW,338,0.0,0.0,68,0.02,,OVC020,0.04,VWS V14.01,2013-02-28 19:19:00,
2013-02-28 13:21:00,34.1,24.7,30.01,NNW,338,4.0,4.0,68,0.02,,OVC020,0.04,VWS V14.01,2013-02-28 19:21:00,
2013-02-28 13:23:00,33.9,24.5,30.01,NNW,338,5.8,5.8,68,0.02,,OVC020,0.04,VWS V14.01,2013-02-28 19:23:00,
2013-02-28 13:27:00,34.1,24.7,30.01,NNW,338,0.0,4.4,68,0.02,,OVC020,0.04,VWS V14.01,2013-02-28 19:27:00,
2013-02-28 13:28:00,34.1,24.7,30.01,NNW,338,0.0,0.0,68,0.02,,OVC020,0.04,VWS V14.01,2013-02-28 19:28:00,
2013-02-28 13:29:00,34.1,24.3,30.01,NNW,338,5.8,5.8,67,0.02,,OVC020,0.04,VWS V14.01,2013-02-28 19:29:00,
2013-02-28 13:32:00,34.1,24.7,30.01,North,0,4.8,4.8,68,0.02,,OVC020,0.04,VWS V14.01,2013-02-28 19:32:00,
2013-02-28 13:35:00,34.1,24.3,30.01,NNW,338,4.8,5.8,67,0.02,,OVC020,0.04,VWS V14.01,2013-02-28 19:35:00,
2013-02-28 13:37:00,34.1,24.3,30.01,NNW,338,4.4,4.8,67,0.02,,OVC020,0.04,VWS V14.01,2013-02-28 19:37:00,
2013-02-28 13:40:00,34.3,24.5,30.02,NNW,338,0.0,0.0,67,0.02,,OVC022,0.04,VWS V14.01,2013-02-28 19:40:00,
2013-02-28 13:41:00,34.3,24.5,30.02,North,0,4.8,4.8,67,0.02,,OVC022,0.04,VWS V14.01,2013-02-28 19:41:00,
2013-02-28 13:42:00,34.3,24.5,30.02,NNW,338,0.0,4.8,67,0.02,,OVC022,0.04,VWS V14.01,2013-02-28 19:42:00,
2013-02-28 13:45:00,34.3,24.5,30.02,NNW,338,0.0,0.0,67,0.02,,OVC022,0.04,VWS V14.01,2013-02-28 19:45:00,
2013-02-28 13:49:00,34.3,24.5,30.02,NNW,338,4.8,4.8,67,0.02,,OVC022,0.04,VWS V14.01,2013-02-28 19:49:00,
2013-02-28 13:51:00,34.3,24.5,30.02,North,0,0.0,8.8,67,0.02,,OVC022,0.04,VWS V14.01,2013-02-28 19:51:00,
2013-02-28 13:53:00,34.3,24.5,30.02,NNW,338,8.4,8.4,67,0.02,,OVC022,0.04,VWS V14.01,2013-02-28 19:53:00,
2013-02-28 13:55:00,34.5,24.3,30.02,NNW,338,0.0,0.0,66,0.00,,OVC022,0.04,VWS V14.01,2013-02-28 19:55:00,
2013-02-28 13:56:00,34.5,24.3,30.02,NNW,338,0.0,0.0,66,0.00,,OVC022,0.04,VWS V14.01,2013-02-28 19:56:00,
2013-02-28 13:57:00,34.5,24.3,30.02,North,0,0.0,4.4,66,0.00,,OVC022,0.04,VWS V14.01,2013-02-28 19:57:00,
2013-02-28 13:59:00,34.5,24.3,30.02,NNW,338,5.8,5.8,66,0.00,,OVC022,0.04,VWS V14.01,2013-02-28 19:59:00,
2013-02-28 14:01:00,34.5,24.3,30.02,North,0,0.0,0.0,66,0.00,,OVC022,0.04,VWS V14.01,2013-02-28 20:01:00,
2013-02-28 14:03:00,34.5,24.3,30.02,NNW,338,0.0,0.0,66,0.00,,OVC022,0.04,VWS V14.01,2013-02-28 20:03:00,
2013-02-28 14:07:00,34.5,24.3,30.02,NNW,338,0.0,0.0,66,0.00,,OVC022,0.04,VWS V14.01,2013-02-28 20:07:00,
2013-02-28 14:09:00,34.5,24.3,30.02,North,0,5.2,5.2,66,0.02,,OVC022,0.06,VWS V14.01,2013-02-28 20:09:00,
2013-02-28 14:10:00,34.5,24.3,30.02,North,0,5.2,5.2,66,0.02,,OVC022,0.06,VWS V14.01,2013-02-28 20:10:00,
2013-02-28 14:12:00,34.5,24.0,30.02,NNW,338,0.0,0.0,65,0.02,,OVC022,0.06,VWS V14.01,2013-02-28 20:12:00,
2013-02-28 14:15:00,34.5,24.0,30.02,NNW,338,0.0,8.0,65,0.02,,OVC022,0.06,VWS V14.01,2013-02-28 20:15:00,
2013-02-28 14:16:00,34.5,24.0,30.02,NNW,338,0.0,0.0,65,0.02,,OVC022,0.06,VWS V14.01,2013-02-28 20:16:00,
2013-02-28 14:21:00,34.5,24.0,30.02,NNW,338,0.0,3.0,65,0.02,,OVC022,0.06,VWS V14.01,2013-02-28 20:21:00,
2013-02-28 14:22:00,34.5,24.0,30.02,NNE,22,0.0,0.0,65,0.02,,OVC022,0.06,VWS V14.01,2013-02-28 20:22:00,
2013-02-28 14:26:00,34.5,24.3,30.02,North,0,11.6,11.6,66,0.02,,OVC022,0.06,VWS V14.01,2013-02-28 20:26:00,
2013-02-28 14:27:00,34.5,24.3,30.02,North,0,4.4,11.6,66,0.02,,OVC022,0.06,VWS V14.01,2013-02-28 20:27:00,
2013-02-28 14:32:00,34.3,24.1,30.03,NNW,338,5.8,5.8,66,0.02,,OVC022,0.06,VWS V14.01,2013-02-28 20:32:00,
2013-02-28 14:33:00,34.1,24.0,30.02,NNW,338,9.2,9.2,66,0.02,,OVC022,0.06,VWS V14.01,2013-02-28 20:33:00,
2013-02-28 14:36:00,34.3,24.1,30.02,NNW,338,4.0,4.0,66,0.02,,OVC022,0.06,VWS V14.01,2013-02-28 20:36:00,
2013-02-28 14:37:00,34.3,24.1,30.02,NNW,338,5.8,5.8,66,0.02,,OVC022,0.06,VWS V14.01,2013-02-28 20:37:00,
2013-02-28 14:40:00,34.1,24.0,30.02,North,0,0.0,0.0,66,0.02,,OVC022,0.06,VWS V14.01,2013-02-28 20:40:00,
2013-02-28 14:43:00,34.1,24.0,30.03,NNW,338,6.2,8.8,66,0.02,,OVC022,0.06,VWS V14.01,2013-02-28 20:43:00,
2013-02-28 14:45:00,34.1,24.0,30.03,NNW,338,0.0,6.2,66,0.02,,OVC022,0.06,VWS V14.01,2013-02-28 20:45:00,
2013-02-28 14:49:00,34.1,24.0,30.03,NNW,338,0.0,3.4,66,0.02,,OVC022,0.06,VWS V14.01,2013-02-28 20:49:00,
2013-02-28 14:50:00,34.3,24.1,30.03,NNW,338,6.2,6.2,66,0.02,,OVC022,0.06,VWS V14.01,2013-02-28 20:50:00,
2013-02-28 14:51:00,34.3,24.1,30.03,NNW,338,0.0,6.2,66,0.02,,OVC022,0.06,VWS V14.01,2013-02-28 20:51:00,
2013-02-28 14:54:00,34.3,24.1,30.03,NNW,338,0.0,0.0,66,0.02,,OVC022,0.06,VWS V14.01,2013-02-28 20:54:00,
2013-02-28 14:55:00,34.3,24.1,30.03,NNW,338,0.0,3.0,66,0.02,,OVC022,0.06,VWS V14.01,2013-02-28 20:55:00,
2013-02-28 14:56:00,34.3,24.1,30.03,NNW,338,0.0,0.0,66,0.02,,OVC022,0.06,VWS V14.01,2013-02-28 20:56:00,
2013-02-28 14:57:00,34.1,24.0,30.03,NNW,338,10.2,10.2,66,0.02,,OVC022,0.06,VWS V14.01,2013-02-28 20:57:00,
2013-02-28 15:01:00,34.1,24.0,30.03,North,0,5.2,5.2,66,0.02,,OVC022,0.06,VWS V14.01,2013-02-28 21:01:00,
2013-02-28 15:05:00,33.9,23.8,30.03,NNW,338,9.2,9.2,66,0.02,,OVC022,0.06,VWS V14.01,2013-02-28 21:05:00,
2013-02-28 15:07:00,34.1,24.0,30.03,North,0,6.6,6.6,66,0.00,,OVC022,0.06,VWS V14.01,2013-02-28 21:07:00,
2013-02-28 15:10:00,33.9,23.8,30.03,NNW,338,8.8,8.8,66,0.00,,OVC022,0.06,VWS V14.01,2013-02-28 21:10:00,
2013-02-28 15:13:00,33.9,23.8,30.03,NNW,338,0.0,0.0,66,0.00,,OVC022,0.06,VWS V14.01,2013-02-28 21:13:00,
2013-02-28 15:14:00,33.9,23.8,30.03,NNW,338,1.2,1.2,66,0.00,,OVC022,0.06,VWS V14.01,2013-02-28 21:14:00,
2013-02-28 15:15:00,33.9,23.8,30.03,NNW,338,3.0,3.0,66,0.00,,OVC022,0.06,VWS V14.01,2013-02-28 21:15:00,
2013-02-28 15:19:00,33.9,23.8,30.04,North,0,5.8,5.8,66,0.02,,OVC022,0.08,VWS V14.01,2013-02-28 21:19:00,
2013-02-28 15:21:00,33.9,23.8,30.04,North,0,6.6,6.6,66,0.02,,OVC022,0.08,VWS V14.01,2013-02-28 21:21:00,
2013-02-28 15:23:00,33.9,23.8,30.03,NNW,338,3.0,6.6,66,0.02,,OVC022,0.08,VWS V14.01,2013-02-28 21:23:00,
2013-02-28 15:24:00,33.9,23.8,30.04,NNW,338,11.0,11.0,66,0.02,,OVC022,0.08,VWS V14.01,2013-02-28 21:24:00,
2013-02-28 15:26:00,33.9,23.8,30.04,NNW,338,0.0,4.0,66,0.02,,OVC022,0.08,VWS V14.01,2013-02-28 21:26:00,
2013-02-28 15:27:00,33.9,23.8,30.03,NNW,338,6.2,6.2,66,0.02,,OVC022,0.08,VWS V14.01,2013-02-28 21:27:00,
2013-02-28 15:29:00,33.9,23.8,30.04,NNW,338,0.0,6.2,66,0.02,,OVC022,0.08,VWS V14.01,2013-02-28 21:29:00,
2013-02-28 15:33:00,33.9,23.8,30.04,NNW,338,6.6,6.6,66,0.02,,OVC022,0.08,VWS V14.01,2013-02-28 21:33:00,
2013-02-28 15:34:00,33.9,23.8,30.04,North,0,4.8,6.6,66,0.02,,OVC022,0.08,VWS V14.01,2013-02-28 21:34:00,
2013-02-28 15:37:00,33.9,23.8,30.04,North,0,0.0,0.0,66,0.02,,OVC022,0.08,VWS V14.01,2013-02-28 21:37:00,
2013-02-28 15:38:00,33.9,23.8,30.04,NNW,338,8.0,8.0,66,0.02,,OVC022,0.08,VWS V14.01,2013-02-28 21:38:00,
2013-02-28 15:40:00,33.9,23.8,30.04,NNW,338,8.0,8.0,66,0.02,,OVC024,0.08,VWS V14.01,2013-02-28 21:40:00,
2013-02-28 15:43:00,33.9,23.8,30.04,NNW,338,0.0,0.0,66,0.02,,OVC024,0.08,VWS V14.01,2013-02-28 21:43:00,
2013-02-28 15:45:00,33.9,23.8,30.04,NNW,338,6.2,6.2,66,0.02,,OVC024,0.08,VWS V14.01,2013-02-28 21:45:00,
2013-02-28 15:47:00,33.9,23.8,30.03,North,0,0.0,6.2,66,0.02,,OVC024,0.08,VWS V14.01,2013-02-28 21:47:00,
2013-02-28 15:49:00,33.9,23.8,30.04,NNW,338,0.0,0.0,66,0.02,,OVC024,0.08,VWS V14.01,2013-02-28 21:49:00,
2013-02-28 15:52:00,33.9,23.8,30.04,NNW,338,3.4,3.4,66,0.02,,OVC024,0.08,VWS V14.01,2013-02-28 21:52:00,
2013-02-28 15:54:00,33.9,23.8,30.04,NNW,338,3.4,3.4,66,0.02,,OVC024,0.08,VWS V14.01,2013-02-28 21:54:00,
2013-02-28 15:55:00,33.9,23.8,30.04,NNW,338,3.0,3.4,66,0.02,,OVC024,0.08,VWS V14.01,2013-02-28 21:55:00,
2013-02-28 15:59:00,33.9,23.8,30.04,NNW,338,0.0,0.0,66,0.02,,OVC024,0.08,VWS V14.01,2013-02-28 21:59:00,
2013-02-28 16:00:00,33.9,23.8,30.04,NNW,338,0.0,0.0,66,0.02,,OVC024,0.08,VWS V14.01,2013-02-28 22:00:00,
2013-02-28 16:01:00,33.9,23.8,30.04,NNW,338,0.0,0.0,66,0.02,,OVC024,0.08,VWS V14.01,2013-02-28 22:01:00,
2013-02-28 16:05:00,34.1,24.0,30.04,NNW,338,0.0,0.0,66,0.02,,OVC024,0.08,VWS V14.01,2013-02-28 22:05:00,
2013-02-28 16:07:00,33.9,23.8,30.03,NNW,338,0.0,0.0,66,0.02,,OVC024,0.08,VWS V14.01,2013-02-28 22:07:00,
2013-02-28 16:11:00,33.9,23.8,30.04,NNW,338,5.8,5.8,66,0.02,,OVC024,0.08,VWS V14.01,2013-02-28 22:11:00,
2013-02-28 16:12:00,33.9,23.8,30.04,NNW,338,0.0,5.8,66,0.02,,OVC024,0.08,VWS V14.01,2013-02-28 22:12:00,
2013-02-28 16:13:00,34.1,24.0,30.04,NNW,338,4.0,4.0,66,0.02,,OVC024,0.08,VWS V14.01,2013-02-28 22:13:00,
2013-02-28 16:15:00,34.1,24.0,30.04,North,0,0.0,9.2,66,0.02,,OVC024,0.08,VWS V14.01,2013-02-28 22:15:00,
2013-02-28 16:19:00,33.9,23.8,30.04,North,0,4.8,4.8,66,0.00,,OVC024,0.08,VWS V14.01,2013-02-28 22:19:00,
2013-02-28 16:20:00,34.1,24.0,30.04,NNW,338,0.0,4.8,66,0.00,,OVC024,0.08,VWS V14.01,2013-02-28 22:20:00,
2013-02-28 16:21:00,34.1,24.0,30.04,North,0,0.0,4.8,66,0.00,,OVC024,0.08,VWS V14.01,2013-02-28 22:21:00,
2013-02-28 16:24:00,34.1,24.0,30.04,North,0,0.0,0.0,66,0.00,,OVC024,0.08,VWS V14.01,2013-02-28 22:24:00,
2013-02-28 16:27:00,34.1,24.0,30.04,North,0,0.0,0.0,66,0.00,,OVC024,0.08,VWS V14.01,2013-02-28 22:27:00,
2013-02-28 16:28:00,34.1,24.0,30.04,North,0,0.0,0.0,66,0.00,,OVC024,0.08,VWS V14.01,2013-02-28 22:28:00,
2013-02-28 16:32:00,34.1,24.0,30.04,NNW,338,0.0,0.0,66,0.00,,OVC024,0.08,VWS V14.01,2013-02-28 22:32:00,
2013-02-28 16:33:00,34.1,24.0,30.04,North,0,0.0,0.0,66,0.00,,OVC024,0.08,VWS V14.01,2013-02-28 22:33:00,
2013-02-28 16:36:00,34.1,24.0,30.04,NNW,338,0.0,0.0,66,0.00,,OVC024,0.08,VWS V14.01,2013-02-28 22:36:00,
2013-02-28 16:38:00,34.1,24.0,30.04,NNW,338,8.4,8.4,66,0.00,,OVC024,0.08,VWS V14.01,2013-02-28 22:38:00,
2013-02-28 16:39:00,34.1,24.0,30.04,NNW,338,3.4,8.4,66,0.00,,OVC024,0.08,VWS V14.01,2013-02-28 22:39:00,
2013-02-28 16:43:00,34.1,23.6,30.04,NNW,338,0.0,2.6,65,0.00,,OVC024,0.08,VWS V14.01,2013-02-28 22:43:00,
2013-02-28 16:44:00,34.1,23.6,30.04,NNW,338,0.0,0.0,65,0.00,,OVC024,0.08,VWS V14.01,2013-02-28 22:44:00,
2013-02-28 16:46:00,34.1,23.6,30.05,NNW,338,5.2,5.2,65,0.00,,OVC024,0.08,VWS V14.01,2013-02-28 22:46:00,
2013-02-28 16:49:00,33.9,23.4,30.05,North,0,6.2,6.2,65,0.00,,OVC024,0.08,VWS V14.01,2013-02-28 22:49:00,
2013-02-28 16:54:00,33.9,23.4,30.05,NNW,338,4.8,4.8,65,0.00,,OVC024,0.08,VWS V14.01,2013-02-28 22:54:00,
2013-02-28 16:55:00,33.8,23.3,30.05,NNW,338,0.0,4.8,65,0.00,,OVC024,0.08,VWS V14.01,2013-02-28 22:55:00,
2013-02-28 16:59:00,33.8,23.3,30.05,NNW,338,0.0,4.8,65,0.00,,OVC024,0.08,VWS V14.01,2013-02-28 22:59:00,
2013-02-28 17:01:00,33.8,23.3,30.05,NNW,338,0.0,0.0,65,0.00,,OVC024,0.08,VWS V14.01,2013-02-28 23:01:00,
2013-02-28 17:02:00,33.8,23.3,30.05,NNW,338,2.6,2.6,65,0.00,,OVC024,0.08,VWS V14.01,2013-02-28 23:02:00,
2013-02-28 17:04:00,33.8,23.3,30.05,NNE,22,0.0,0.0,65,0.00,,OVC024,0.08,VWS V14.01,2013-02-28 23:04:00,
2013-02-28 17:05:00,33.6,23.1,30.05,NNE,22,0.0,0.0,65,0.00,,OVC024,0.08,VWS V14.01,2013-02-28 23:05:00,
2013-02-28 17:06:00,33.6,23.1,30.05,NNE,22,0.0,0.0,65,0.00,,OVC024,0.08,VWS V14.01,2013-02-28 23:06:00,
2013-02-28 17:08:00,33.6,23.1,30.05,NNW,338,0.0,0.0,65,0.00,,OVC024,0.08,VWS V14.01,2013-02-28 23:08:00,
2013-02-28 17:09:00,33.6,23.1,30.05,North,0,5.8,5.8,65,0.00,,OVC024,0.08,VWS V14.01,2013-02-28 23:09:00,
2013-02-28 17:11:00,33.6,23.1,30.05,NNW,338,5.2,5.2,65,0.00,,OVC024,0.08,VWS V14.01,2013-02-28 23:11:00,
2013-02-28 17:13:00,33.6,23.1,30.05,North,0,0.0,1.6,65,0.00,,OVC024,0.08,VWS V14.01,2013-02-28 23:13:00,
2013-02-28 17:16:00,33.4,22.9,30.06,NNW,338,6.6,6.6,65,0.00,,OVC024,0.08,VWS V14.01,2013-02-28 23:16:00,
2013-02-28 17:17:00,33.4,22.9,30.06,NNW,338,0.0,6.6,65,0.00,,OVC024,0.08,VWS V14.01,2013-02-28 23:17:00,
2013-02-28 17:18:00,33.4,22.9,30.06,NNW,338,0.0,0.0,65,0.00,,OVC024,0.08,VWS V14.01,2013-02-28 23:18:00,
2013-02-28 17:21:00,33.4,22.9,30.05,NNW,338,6.2,6.2,65,0.00,,OVC024,0.08,VWS V14.01,2013-02-28 23:21:00,
2013-02-28 17:23:00,33.4,22.9,30.06,NNW,338,0.0,0.0,65,0.00,,OVC024,0.00,VWS V14.01,2013-02-28 23:23:00,
2013-02-28 17:26:00,33.4,22.9,30.06,NNW,338,6.2,6.2,65,0.00,,OVC024,0.08,VWS V14.01,2013-02-28 23:26:00,
2013-02-28 17:28:00,33.4,22.9,30.06,NNW,338,0.0,0.0,65,0.00,,OVC024,0.08,VWS V14.01,2013-02-28 23:28:00,
2013-02-28 17:29:00,33.4,22.9,30.06,NNW,338,4.8,4.8,65,0.00,,OVC024,0.08,VWS V14.01,2013-02-28 23:29:00,
2013-02-28 17:33:00,33.2,22.7,30.06,North,0,6.6,6.6,65,0.00,,OVC024,0.08,VWS V14.01,2013-02-28 23:33:00,
2013-02-28 17:34:00,33.2,22.7,30.06,North,0,0.0,6.6,65,0.00,,OVC024,0.08,VWS V14.01,2013-02-28 23:34:00,
2013-02-28 17:35:00,33.2,22.7,30.06,North,0,0.0,6.6,65,0.00,,OVC024,0.08,VWS V14.01,2013-02-28 23:35:00,
2013-02-28 17:39:00,33.2,23.1,30.06,North,0,2.2,2.2,66,0.00,,OVC032,0.08,VWS V14.01,2013-02-28 23:39:00,
2013-02-28 17:41:00,33.2,23.1,30.06,NNW,338,0.0,2.2,66,0.00,,OVC032,0.08,VWS V14.01,2013-02-28 23:41:00,
2013-02-28 17:42:00,33.2,23.1,30.06,NNE,22,4.0,4.0,66,0.00,,OVC032,0.08,VWS V14.01,2013-02-28 23:42:00,
2013-02-28 17:43:00,33.2,23.1,30.06,North,0,0.0,4.0,66,0.00,,OVC032,0.08,VWS V14.01,2013-02-28 23:43:00,
2013-02-28 17:46:00,33.0,22.9,30.06,NNW,338,1.6,1.6,66,0.00,,OVC032,0.08,VWS V14.01,2013-02-28 23:46:00,
2013-02-28 17:49:00,32.9,22.8,30.06,NNW,338,0.0,0.0,66,0.00,,OVC032,0.08,VWS V14.01,2013-02-28 23:49:00,
2013-02-28 17:51:00,32.9,22.8,30.06,NNW,338,2.6,2.6,66,0.00,,OVC032,0.08,VWS V14.01,2013-02-28 23:51:00,
2013-02-28 17:53:00,32.9,22.8,30.06,NNW,338,0.0,0.0,66,0.00,,OVC032,0.08,VWS V14.01,2013-02-28 23:53:00,
2013-02-28 17:54:00,32.9,22.8,30.06,North,0,0.0,0.0,66,0.00,,OVC032,0.08,VWS V14.01,2013-02-28 23:54:00,
2013-02-28 17:57:00,32.9,22.8,30.06,NNW,338,0.0,0.0,66,0.00,,OVC032,0.08,VWS V14.01,2013-02-28 23:57:00,
2013-02-28 17:58:00,32.9,22.8,30.06,NNW,338,0.0,0.0,66,0.00,,OVC032,0.08,VWS V14.01,2013-02-28 23:58:00,
2013-02-28 18:00:00,32.9,22.8,30.06,North,0,8.0,8.0,66,0.00,,OVC032,0.08,VWS V14.01,2013-03-01 00:00:00,
2013-02-28 18:03:00,32.9,22.8,30.06,NNW,338,0.0,4.4,66,0.00,,OVC032,0.08,VWS V14.01,2013-03-01 00:03:00,
2013-02-28 18:08:00,32.7,22.6,30.06,NNW,338,0.0,0.0,66,0.00,,OVC032,0.08,VWS V14.01,2013-03-01 00:08:00,
2013-02-28 18:09:00,32.7,22.6,30.06,NNW,338,0.0,0.0,66,0.00,,OVC032,0.08,VWS V14.01,2013-03-01 00:09:00,
2013-02-28 18:11:00,32.7,22.6,30.06,NNW,338,0.0,0.0,66,0.00,,OVC032,0.08,VWS V14.01,2013-03-01 00:11:00,
2013-02-28 18:14:00,32.7,23.0,30.07,NNW,338,0.0,0.0,67,0.00,,OVC032,0.08,VWS V14.01,2013-03-01 00:14:00,
2013-02-28 18:15:00,32.7,23.0,30.06,NNW,338,0.0,0.0,67,0.00,,OVC032,0.08,VWS V14.01,2013-03-01 00:15:00,
2013-02-28 18:16:00,32.7,23.0,30.07,NNW,338,0.0,0.0,67,0.00,,OVC032,0.08,VWS V14.01,2013-03-01 00:16:00,
2013-02-28 18:17:00,32.7,23.0,30.06,North,0,0.0,0.0,67,0.00,,OVC032,0.08,VWS V14.01,2013-03-01 00:17:00,
2013-02-28 18:21:00,32.7,23.0,30.06,NNW,338,5.2,5.2,67,0.00,,OVC032,0.08,VWS V14.01,2013-03-01 00:21:00,
2013-02-28 18:23:00,32.5,22.8,30.06,NNW,338,0.0,5.2,67,0.00,,OVC032,0.08,VWS V14.01,2013-03-01 00:23:00,
2013-02-28 18:24:00,32.5,22.8,30.06,NNW,338,0.0,0.0,67,0.00,,OVC032,0.08,VWS V14.01,2013-03-01 00:24:00,
2013-02-28 18:26:00,32.5,22.8,30.06,NNW,338,0.0,0.0,67,0.00,,OVC032,0.08,VWS V14.01,2013-03-01 00:26:00,
2013-02-28 18:28:00,32.5,22.8,30.06,North,0,7.6,7.6,67,0.00,,OVC032,0.08,VWS V14.01,2013-03-01 00:28:00,
2013-02-28 18:31:00,32.3,22.6,30.06,North,0,0.0,0.0,67,0.00,,OVC032,0.08,VWS V14.01,2013-03-01 00:31:00,
2013-02-28 18:32:00,32.3,22.6,30.06,North,0,1.6,1.6,67,0.00,,OVC032,0.08,VWS V14.01,2013-03-01 00:32:00,
2013-02-28 18:35:00,32.3,22.9,30.06,NNW,338,0.0,0.0,68,0.00,,OVC032,0.08,VWS V14.01,2013-03-01 00:35:00,
2013-02-28 18:37:00,32.3,22.9,30.06,NNW,338,0.0,0.0,68,0.00,,OVC032,0.08,VWS V14.01,2013-03-01 00:37:00,
2013-02-28 18:41:00,32.3,22.9,30.07,NNW,338,0.0,5.2,68,0.00,,OVC028,0.08,VWS V14.01,2013-03-01 00:41:00,
2013-02-28 18:43:00,32.1,22.8,30.06,NNW,338,0.0,0.0,68,0.00,,OVC028,0.08,VWS V14.01,2013-03-01 00:43:00,
2013-02-28 18:46:00,32.1,23.1,30.06,NNW,338,0.0,0.0,69,0.00,,OVC028,0.08,VWS V14.01,2013-03-01 00:46:00,
2013-02-28 18:49:00,32.1,23.1,30.06,NNW,338,0.0,0.0,69,0.00,,OVC028,0.08,VWS V14.01,2013-03-01 00:49:00,
2013-02-28 18:51:00,32.1,23.1,30.06,NNW,338,0.0,0.0,69,0.00,,OVC028,0.08,VWS V14.01,2013-03-01 00:51:00,
2013-02-28 18:54:00,32.1,23.1,30.06,NNW,338,0.0,0.0,69,0.00,,OVC028,0.08,VWS V14.01,2013-03-01 00:54:00,
2013-02-28 18:55:00,32.1,23.1,30.07,NNW,338,0.0,0.0,69,0.02,,OVC028,0.10,VWS V14.01,2013-03-01 00:55:00,
2013-02-28 18:57:00,32.1,23.1,30.07,NNW,338,0.0,0.0,69,0.02,,OVC028,0.10,VWS V14.01,2013-03-01 00:57:00,
2013-02-28 19:00:00,32.1,23.4,30.07,NNW,338,0.0,0.0,70,0.02,,OVC028,0.10,VWS V14.01,2013-03-01 01:00:00,
2013-02-28 19:01:00,32.1,23.4,30.07,NNW,338,0.0,0.0,70,0.02,,OVC028,0.10,VWS V14.01,2013-03-01 01:01:00,
2013-02-28 19:07:00,32.0,23.3,30.07,NNW,338,0.0,0.0,70,0.02,,OVC028,0.10,VWS V14.01,2013-03-01 01:07:00,
2013-02-28 19:09:00,32.0,23.3,30.07,NNW,338,0.0,0.0,70,0.02,,OVC028,0.10,VWS V14.01,2013-03-01 01:09:00,
2013-02-28 19:12:00,31.6,23.0,30.07,NNW,338,0.0,0.0,70,0.02,,OVC028,0.10,VWS V14.01,2013-03-01 01:12:00,
2013-02-28 19:13:00,32.0,23.3,30.07,NNW,338,0.0,0.0,70,0.02,,OVC028,0.10,VWS V14.01,2013-03-01 01:13:00,
2013-02-28 19:15:00,31.8,23.1,30.07,NNW,338,0.0,0.0,70,0.02,,OVC028,0.10,VWS V14.01,2013-03-01 01:15:00,
2013-02-28 19:16:00,31.6,23.0,30.07,NNW,338,0.0,0.0,70,0.02,,OVC028,0.10,VWS V14.01,2013-03-01 01:16:00,
2013-02-28 19:19:00,31.8,23.1,30.07,NNW,338,0.0,0.0,70,0.02,,OVC028,0.10,VWS V14.01,2013-03-01 01:19:00,
2013-02-28 19:20:00,31.8,23.5,30.07,NNW,338,0.0,0.0,71,0.02,,OVC028,0.10,VWS V14.01,2013-03-01 01:20:00,
2013-02-28 19:21:00,31.8,23.5,30.07,North,0,0.0,0.0,71,0.02,,OVC028,0.10,VWS V14.01,2013-03-01 01:21:00,
2013-02-28 19:24:00,31.6,23.3,30.07,NNW,338,0.0,0.0,71,0.02,,OVC028,0.10,VWS V14.01,2013-03-01 01:24:00,
2013-02-28 19:25:00,31.6,23.3,30.08,NNW,338,0.0,0.0,71,0.02,,OVC028,0.10,VWS V14.01,2013-03-01 01:25:00,
2013-02-28 19:30:00,31.6,23.3,30.08,North,0,0.0,0.0,71,0.02,,OVC028,0.10,VWS V14.01,2013-03-01 01:30:00,
2013-02-28 19:31:00,31.6,23.3,30.07,NNW,338,0.0,0.0,71,0.02,,OVC028,0.10,VWS V14.01,2013-03-01 01:31:00,
2013-02-28 19:33:00,31.6,23.3,30.07,SSW,202,0.0,0.0,71,0.02,,OVC028,0.10,VWS V14.01,2013-03-01 01:33:00,
2013-02-28 19:37:00,31.6,23.3,30.07,North,0,0.0,0.0,71,0.02,,OVC028,0.10,VWS V14.01,2013-03-01 01:37:00,
2013-02-28 19:38:00,31.6,23.3,30.07,NNW,338,0.0,0.0,71,0.02,,OVC028,0.10,VWS V14.01,2013-03-01 01:38:00,
2013-02-28 19:40:00,31.4,23.1,30.07,NNW,338,0.0,0.0,71,0.02,,,0.10,VWS V14.01,2013-03-01 01:40:00,
2013-02-28 19:41:00,31.4,23.4,30.07,North,0,0.0,0.0,72,0.02,,,0.10,VWS V14.01,2013-03-01 01:41:00,
2013-02-28 19:42:00,31.4,23.4,30.07,NNW,338,0.0,0.0,72,0.02,,,0.10,VWS V14.01,2013-03-01 01:42:00,
2013-02-28 19:46:00,31.2,23.2,30.07,NNW,338,28.0,28.0,72,0.02,,,0.10,VWS V14.01,2013-03-01 01:46:00,
2013-02-28 19:48:00,31.4,23.4,30.07,NNW,338,28.0,28.0,72,0.02,,,0.10,VWS V14.01,2013-03-01 01:48:00,
2013-02-28 19:49:00,31.4,23.4,30.07,NNW,338,28.0,28.0,72,0.02,,OVC028,0.10,VWS V14.01,2013-03-01 01:49:00,
2013-02-28 19:54:00,31.1,23.1,30.07,NNW,338,0.0,0.0,72,0.02,,OVC028,0.10,VWS V14.01,2013-03-01 01:54:00,
2013-02-28 19:55:00,31.1,23.1,30.07,NNW,338,0.0,0.0,72,0.02,,OVC028,0.10,VWS V14.01,2013-03-01 01:55:00,
2013-02-28 20:00:00,31.1,23.5,30.07,NNW,338,0.0,0.0,73,0.00,,OVC028,0.10,VWS V14.01,2013-03-01 02:00:00,
2013-02-28 20:01:00,31.1,23.5,30.07,NNW,338,0.0,0.0,73,0.00,,OVC028,0.10,VWS V14.01,2013-03-01 02:01:00,
2013-02-28 20:02:00,30.9,23.3,30.07,NNW,338,0.0,0.0,73,0.00,,OVC028,0.10,VWS V14.01,2013-03-01 02:02:00,
2013-02-28 20:03:00,30.9,23.3,30.07,NNW,338,6.6,6.6,73,0.00,,OVC028,0.10,VWS V14.01,2013-03-01 02:03:00,
2013-02-28 20:07:00,30.9,23.3,30.07,NNW,338,0.0,0.0,73,0.00,,OVC028,0.10,VWS V14.01,2013-03-01 02:07:00,
2013-02-28 20:08:00,30.9,23.3,30.07,NNW,338,0.0,0.0,73,0.00,,OVC028,0.10,VWS V14.01,2013-03-01 02:08:00,
2013-02-28 20:09:00,30.9,23.3,30.07,NNW,338,28.0,28.0,73,0.00,,OVC028,0.10,VWS V14.01,2013-03-01 02:09:00,
2013-02-28 20:12:00,30.9,23.3,30.07,NNW,338,28.0,28.0,73,0.00,,OVC028,0.10,VWS V14.01,2013-03-01 02:12:00,
2013-02-28 20:15:00,30.5,22.9,30.08,NNW,338,28.0,28.0,73,0.00,,OVC028,0.10,VWS V14.01,2013-03-01 02:15:00,
2013-02-28 20:17:00,30.7,23.1,30.07,NNW,338,28.0,28.0,73,0.00,,OVC028,0.10,VWS V14.01,2013-03-01 02:17:00,
2013-02-28 20:20:00,30.7,23.4,30.07,NNW,338,28.0,28.0,74,0.00,,OVC028,0.10,VWS V14.01,2013-03-01 02:20:00,
2013-02-28 20:21:00,30.5,23.2,30.08,NNW,338,28.0,28.0,74,0.00,,OVC028,0.10,VWS V14.01,2013-03-01 02:21:00,
2013-02-28 20:23:00,30.7,23.4,30.08,NNW,338,28.0,28.0,74,0.00,,OVC028,0.10,VWS V14.01,2013-03-01 02:23:00,
2013-02-28 20:25:00,30.5,23.2,30.07,NNW,338,0.0,0.0,74,0.00,,OVC028,0.10,VWS V14.01,2013-03-01 02:25:00,
2013-02-28 20:26:00,30.5,23.2,30.07,NNW,338,0.0,0.0,74,0.00,,OVC028,0.10,VWS V14.01,2013-03-01 02:26:00,
2013-02-28 20:29:00,30.5,23.2,30.07,NNW,338,0.0,0.0,74,0.00,,OVC028,0.10,VWS V14.01,2013-03-01 02:29:00,
2013-02-28 20:31:00,30.5,23.2,30.08,NNW,338,0.0,0.0,74,0.00,,OVC028,0.10,VWS V14.01,2013-03-01 02:31:00,
2013-02-28 20:33:00,30.5,23.2,30.07,NNW,338,0.0,0.0,74,0.00,,OVC028,0.10,VWS V14.01,2013-03-01 02:33:00,
2013-02-28 20:34:00,30.3,23.0,30.07,NNW,338,0.0,0.0,74,0.00,,OVC028,0.10,VWS V14.01,2013-03-01 02:34:00,
2013-02-28 20:36:00,30.5,23.2,30.08,NNW,338,4.0,4.0,74,0.00,,OVC028,0.10,VWS V14.01,2013-03-01 02:36:00,
2013-02-28 20:39:00,30.3,23.0,30.08,NNW,338,0.0,0.0,74,0.00,,,0.10,VWS V14.01,2013-03-01 02:39:00,
2013-02-28 20:41:00,30.3,23.3,30.08,NNW,338,0.0,0.0,75,0.00,,,0.10,VWS V14.01,2013-03-01 02:41:00,
2013-02-28 20:45:00,30.3,23.3,30.08,NNW,338,0.0,0.0,75,0.00,,,0.10,VWS V14.01,2013-03-01 02:45:00,
2013-02-28 20:47:00,30.3,23.3,30.08,NNW,338,8.8,8.8,75,0.00,,,0.10,VWS V14.01,2013-03-01 02:47:00,
2013-02-28 20:48:00,30.3,23.3,30.08,NNW,338,0.0,0.0,75,0.00,,,0.10,VWS V14.01,2013-03-01 02:48:00,
2013-02-28 20:53:00,30.2,23.2,30.08,North,0,0.0,0.0,75,0.00,,,0.10,VWS V14.01,2013-03-01 02:53:00,
2013-02-28 20:59:00,30.0,23.4,30.08,NNW,338,0.0,0.0,76,0.00,,,0.10,VWS V14.01,2013-03-01 02:59:00,
2013-02-28 21:02:00,30.0,23.4,30.08,NNW,338,0.0,0.0,76,0.00,,,0.10,VWS V14.01,2013-03-01 03:02:00,
2013-02-28 21:04:00,30.0,23.4,30.08,NNW,338,0.0,0.0,76,0.00,,,0.10,VWS V14.01,2013-03-01 03:04:00,
2013-02-28 21:05:00,30.2,23.6,30.08,NNW,338,0.0,0.0,76,0.00,,,0.10,VWS V14.01,2013-03-01 03:05:00,
2013-02-28 21:09:00,30.0,23.4,30.08,NNW,338,0.0,0.0,76,0.00,,,0.10,VWS V14.01,2013-03-01 03:09:00,
2013-02-28 21:11:00,30.0,23.7,30.08,NNW,338,0.0,0.0,77,0.00,,,0.10,VWS V14.01,2013-03-01 03:11:00,
2013-02-28 21:17:00,30.0,23.7,30.08,NNW,338,0.0,0.0,77,0.00,,,0.10,VWS V14.01,2013-03-01 03:17:00,
2013-02-28 21:18:00,30.0,23.7,30.08,NNW,338,0.0,0.0,77,0.00,,,0.10,VWS V14.01,2013-03-01 03:18:00,
2013-02-28 21:19:00,29.8,23.5,30.08,NNW,338,0.0,0.0,77,0.00,,,0.10,VWS V14.01,2013-03-01 03:19:00,
2013-02-28 21:23:00,29.8,23.5,30.08,NNW,338,0.0,0.0,77,0.00,,,0.10,VWS V14.01,2013-03-01 03:23:00,
2013-02-28 21:24:00,29.8,23.5,30.08,NNW,338,0.0,0.0,77,0.00,,,0.10,VWS V14.01,2013-03-01 03:24:00,
2013-02-28 21:25:00,29.8,23.8,30.08,NNW,338,0.0,0.0,78,0.00,,,0.10,VWS V14.01,2013-03-01 03:25:00,
2013-02-28 21:27:00,29.8,23.8,30.08,North,0,0.0,0.0,78,0.00,,,0.10,VWS V14.01,2013-03-01 03:27:00,
2013-02-28 21:29:00,29.8,23.8,30.09,NNW,338,0.0,0.0,78,0.00,,,0.10,VWS V14.01,2013-03-01 03:29:00,
2013-02-28 21:31:00,29.8,23.8,30.09,NNW,338,0.0,0.0,78,0.00,,,0.10,VWS V14.01,2013-03-01 03:31:00,
2013-02-28 21:33:00,29.6,23.6,30.09,NNW,338,0.0,0.0,78,0.00,,,0.10,VWS V14.01,2013-03-01 03:33:00,
2013-02-28 21:35:00,29.8,23.8,30.08,North,0,0.0,0.0,78,0.00,,,0.10,VWS V14.01,2013-03-01 03:35:00,
2013-02-28 21:36:00,29.8,23.8,30.08,NNW,338,0.0,0.0,78,0.00,,,0.10,VWS V14.01,2013-03-01 03:36:00,
2013-02-28 21:38:00,29.8,24.1,30.08,North,0,0.0,0.0,79,0.00,,,0.10,VWS V14.01,2013-03-01 03:38:00,
2013-02-28 21:41:00,29.8,24.1,30.09,NNW,338,0.0,0.0,79,0.00,,,0.10,VWS V14.01,2013-03-01 03:41:00,
2013-02-28 21:42:00,29.8,24.1,30.08,NNW,338,0.0,0.0,79,0.00,,,0.10,VWS V14.01,2013-03-01 03:42:00,
2013-02-28 21:43:00,29.8,24.1,30.09,NNW,338,0.0,0.0,79,0.00,,,0.10,VWS V14.01,2013-03-01 03:43:00,
2013-02-28 21:47:00,29.8,24.1,30.09,North,0,0.0,0.0,79,0.00,,,0.10,VWS V14.01,2013-03-01 03:47:00,
2013-02-28 21:51:00,29.8,24.1,30.09,NNW,338,0.0,0.0,79,0.00,,,0.10,VWS V14.01,2013-03-01 03:51:00,
2013-02-28 21:52:00,29.8,24.1,30.09,NNW,338,0.0,0.0,79,0.00,,,0.10,VWS V14.01,2013-03-01 03:52:00,
2013-02-28 21:54:00,29.8,24.4,30.09,North,0,0.0,0.0,80,0.00,,,0.10,VWS V14.01,2013-03-01 03:54:00,
2013-02-28 21:56:00,29.8,24.4,30.09,NNW,338,0.0,0.0,80,0.00,,,0.10,VWS V14.01,2013-03-01 03:56:00,
2013-02-28 21:58:00,29.8,24.4,30.09,NNW,338,0.0,0.0,80,0.00,,,0.10,VWS V14.01,2013-03-01 03:58:00,
2013-02-28 21:59:00,29.6,24.2,30.09,NNW,338,0.0,0.0,80,0.00,,,0.10,VWS V14.01,2013-03-01 03:59:00,
2013-02-28 22:00:00,29.8,24.4,30.09,NNW,338,0.0,0.0,80,0.00,,,0.10,VWS V14.01,2013-03-01 04:00:00,
2013-02-28 22:03:00,29.8,24.4,30.09,NNW,338,0.0,0.0,80,0.00,,,0.10,VWS V14.01,2013-03-01 04:03:00,
2013-02-28 22:05:00,29.6,24.2,30.09,NNW,338,0.0,0.0,80,0.00,,,0.10,VWS V14.01,2013-03-01 04:05:00,
2013-02-28 22:08:00,29.6,24.2,30.09,NNW,338,0.0,0.0,80,0.00,,,0.10,VWS V14.01,2013-03-01 04:08:00,
2013-02-28 22:09:00,29.6,24.2,30.09,NNW,338,0.0,0.0,80,0.00,,,0.10,VWS V14.01,2013-03-01 04:09:00,
2013-02-28 22:13:00,29.6,24.2,30.09,NNW,338,0.0,0.0,80,0.00,,,0.10,VWS V14.01,2013-03-01 04:13:00,
2013-02-28 22:15:00,29.6,24.2,30.09,North,0,0.0,0.0,80,0.00,,,0.10,VWS V14.01,2013-03-01 04:15:00,
2013-02-28 22:20:00,29.6,24.5,30.09,NNE,22,0.0,0.0,81,0.00,,,0.10,VWS V14.01,2013-03-01 04:20:00,
2013-02-28 22:21:00,29.6,24.5,30.09,NNW,338,0.0,0.0,81,0.00,,,0.10,VWS V14.01,2013-03-01 04:21:00,
2013-02-28 22:26:00,29.6,24.5,30.09,NNE,22,0.0,0.0,81,0.00,,,0.10,VWS V14.01,2013-03-01 04:26:00,
2013-02-28 22:27:00,29.6,24.5,30.09,NNW,338,0.0,0.0,81,0.00,,,0.10,VWS V14.01,2013-03-01 04:27:00,
2013-02-28 22:28:00,29.6,24.5,30.09,NNW,338,0.0,0.0,81,0.00,,,0.10,VWS V14.01,2013-03-01 04:28:00,
2013-02-28 22:32:00,29.6,24.5,30.09,NNW,338,0.0,0.0,81,0.00,,,0.10,VWS V14.01,2013-03-01 04:32:00,
2013-02-28 22:33:00,29.6,24.5,30.09,NNW,338,0.0,0.0,81,0.00,,,0.10,VWS V14.01,2013-03-01 04:33:00,
2013-02-28 22:35:00,29.6,24.5,30.09,NNW,338,0.0,0.0,81,0.00,,,0.10,VWS V14.01,2013-03-01 04:35:00,
2013-02-28 22:37:00,29.6,24.5,30.09,NNW,338,0.0,0.0,81,0.00,,,0.10,VWS V14.01,2013-03-01 04:37:00,
2013-02-28 22:38:00,29.4,24.3,30.09,NNW,338,0.0,0.0,81,0.00,,,0.10,VWS V14.01,2013-03-01 04:38:00,
2013-02-28 22:39:00,29.6,24.5,30.09,NNW,338,0.0,0.0,81,0.00,,,0.10,VWS V14.01,2013-03-01 04:39:00,
2013-02-28 22:42:00,29.4,24.6,30.09,North,0,0.0,0.0,82,0.00,,,0.10,VWS V14.01,2013-03-01 04:42:00,
2013-02-28 22:44:00,29.4,24.6,30.09,NNW,338,0.0,0.0,82,0.00,,,0.10,VWS V14.01,2013-03-01 04:44:00,
2013-02-28 22:45:00,29.6,24.8,30.09,NNW,338,0.0,0.0,82,0.00,,,0.10,VWS V14.01,2013-03-01 04:45:00,
2013-02-28 22:49:00,29.4,24.6,30.09,North,0,0.0,0.0,82,0.00,,,0.10,VWS V14.01,2013-03-01 04:49:00,
2013-02-28 22:50:00,29.6,24.8,30.09,NNW,338,0.0,0.0,82,0.00,,,0.10,VWS V14.01,2013-03-01 04:50:00,
2013-02-28 22:54:00,29.4,24.6,30.09,NNW,338,0.0,0.0,82,0.00,,,0.10,VWS V14.01,2013-03-01 04:54:00,
2013-02-28 22:55:00,29.6,24.8,30.09,NNW,338,0.0,0.0,82,0.00,,,0.10,VWS V14.01,2013-03-01 04:55:00,
2013-02-28 22:56:00,29.4,24.6,30.09,NNW,338,0.0,0.0,82,0.00,,,0.10,VWS V14.01,2013-03-01 04:56:00,
2013-02-28 22:57:00,29.6,24.8,30.09,NNW,338,0.0,0.0,82,0.00,,,0.10,VWS V14.01,2013-03-01 04:57:00,
2013-02-28 23:00:00,29.4,24.6,30.09,NNW,338,0.0,0.0,82,0.00,,,0.10,VWS V14.01,2013-03-01 05:00:00,
2013-02-28 23:01:00,29.4,24.6,30.09,NNE,22,0.0,0.0,82,0.00,,,0.10,VWS V14.01,2013-03-01 05:01:00,
2013-02-28 23:06:00,29.4,24.6,30.09,NNW,338,0.0,0.0,82,0.00,,,0.10,VWS V14.01,2013-03-01 05:06:00,
2013-02-28 23:07:00,29.4,24.6,30.09,NNW,338,0.0,0.0,82,0.00,,,0.10,VWS V14.01,2013-03-01 05:07:00,
2013-02-28 23:08:00,29.3,24.5,30.09,North,0,0.0,0.0,82,0.00,,,0.10,VWS V14.01,2013-03-01 05:08:00,
2013-02-28 23:12:00,29.4,24.6,30.09,North,0,0.0,0.0,82,0.00,,,0.10,VWS V14.01,2013-03-01 05:12:00,
2013-02-28 23:13:00,29.4,24.6,30.09,NNW,338,0.0,0.0,82,0.00,,,0.10,VWS V14.01,2013-03-01 05:13:00,
2013-02-28 23:15:00,29.3,24.5,30.09,NNW,338,0.0,0.0,82,0.00,,,0.10,VWS V14.01,2013-03-01 05:15:00,
2013-02-28 23:17:00,29.3,24.5,30.09,NNW,338,0.0,0.0,82,0.00,,,0.10,VWS V14.01,2013-03-01 05:17:00,
2013-02-28 23:18:00,29.3,24.5,30.09,NNE,22,0.0,0.0,82,0.00,,,0.10,VWS V14.01,2013-03-01 05:18:00,
2013-02-28 23:20:00,29.1,24.3,30.09,North,0,0.0,0.0,82,0.00,,,0.10,VWS V14.01,2013-03-01 05:20:00,
2013-02-28 23:21:00,29.3,24.5,30.09,NNW,338,0.0,0.0,82,0.00,,,0.10,VWS V14.01,2013-03-01 05:21:00,
2013-02-28 23:24:00,29.1,24.3,30.08,NNE,22,0.0,0.0,82,0.00,,,0.10,VWS V14.01,2013-03-01 05:24:00,
2013-02-28 23:25:00,29.3,24.5,30.09,NNW,338,0.0,0.0,82,0.00,,,0.10,VWS V14.01,2013-03-01 05:25:00,
2013-02-28 23:27:00,29.1,24.3,30.08,North,0,0.0,0.0,82,0.00,,,0.10,VWS V14.01,2013-03-01 05:27:00,
2013-02-28 23:28:00,29.1,24.3,30.08,NNW,338,0.0,0.0,82,0.00,,,0.10,VWS V14.01,2013-03-01 05:28:00,
2013-02-28 23:31:00,29.3,24.8,30.08,NNW,338,0.0,0.0,83,0.00,,,0.10,VWS V14.01,2013-03-01 05:31:00,
2013-02-28 23:32:00,29.1,24.3,30.08,North,0,0.0,0.0,82,0.00,,,0.10,VWS V14.01,2013-03-01 05:32:00,
2013-02-28 23:35:00,29.3,24.8,30.08,North,0,0.0,0.0,83,0.00,,,0.10,VWS V14.01,2013-03-01 05:35:00,
2013-02-28 23:36:00,29.3,24.8,30.08,NNE,22,0.0,0.0,83,0.00,,,0.10,VWS V14.01,2013-03-01 05:36:00,
2013-02-28 23:38:00,29.3,24.8,30.08,North,0,0.0,0.0,83,0.00,,,0.10,VWS V14.01,2013-03-01 05:38:00,
2013-02-28 23:40:00,29.1,24.6,30.08,North,0,0.0,0.0,83,0.00,,,0.10,VWS V14.01,2013-03-01 05:40:00,
2013-02-28 23:42:00,29.1,24.6,30.08,NNW,338,0.0,0.0,83,0.00,,,0.10,VWS V14.01,2013-03-01 05:42:00,
2013-02-28 23:43:00,29.1,24.6,30.09,North,0,0.0,0.0,83,0.00,,,0.10,VWS V14.01,2013-03-01 05:43:00,
2013-02-28 23:46:00,29.1,24.6,30.09,North,0,0.0,0.0,83,0.00,,,0.10,VWS V14.01,2013-03-01 05:46:00,
2013-02-28 23:47:00,29.1,24.6,30.09,North,0,0.0,0.0,83,0.00,,,0.10,VWS V14.01,2013-03-01 05:47:00,
2013-02-28 23:49:00,29.3,24.8,30.09,NNE,22,0.0,0.0,83,0.00,,,0.10,VWS V14.01,2013-03-01 05:49:00,
2013-02-28 23:50:00,29.1,24.6,30.08,NNE,22,0.0,0.0,83,0.00,,,0.10,VWS V14.01,2013-03-01 05:50:00,
2013-02-28 23:54:00,29.1,24.6,30.09,NNE,22,0.0,0.0,83,0.00,,,0.10,VWS V14.01,2013-03-01 05:54:00,
2013-02-28 23:56:00,29.1,24.6,30.09,North,0,0.0,0.0,83,0.00,,,0.10,VWS V14.01,2013-03-01 05:56:00,
2013-02-28 23:59:00,29.1,24.6,30.09,NNW,338,0.0,0.0,83,0.00,,,0.00,VWS V14.01,2013-03-01 05:59:00,